PWSweather.com
Personal Weather Stations
Station Observations
SELKIRK1
Ontario, Selkirk, ON N0A 1P0

OntarioSelkirk, ON N0A 1P0

Lat: 42.8083652, Lon: -79.94971040000001

Elevation: 583

Station Type: Acurite 5 in 1

http://gavinsurf.com

High Low Average
Temperature 36.9°F2.7°C 30.2°F-1.0°C 35.0°F1.7°C
Dew Point 36.6°F2.6°C 29.9°F-1.2°C 34.5°F1.4°C
Winds 11.5 mph 18.5 kmh 1.2 mph 1.9 kmh 7.0 mph ENE11.3 kmh ENE
Wind Gusts 15.0 mph24.1 kmh -- 1.0 mph1.6 kmh
Humidity 99% 93% 98%
Pressure 31.80 in1076.9 mb 31.80 in1076.9 mb -
Precipitation 0.32 in8.1 mm - -
Hour Temp Dew Point Humidity Winds Wind Gusts Pressure Precip Precip Rate Daily Precip Total
12:00 AM 33.8°F1.0°C 33.5°F0.8°C 99% 2.3 mph NE3.7 kmh NE 2.3 mph3.7 kmh 31.80 in1076.9 mb - 0.00 in0.0 mm 0.06 in1.5 mm
12:10 AM 33.8°F1.0°C 33.5°F0.8°C 99% 2.3 mph NE3.7 kmh NE 2.3 mph3.7 kmh 31.80 in1076.9 mb - 0.00 in0.0 mm 0.06 in1.5 mm
12:15 AM 33.8°F1.0°C 33.5°F0.8°C 99% 1.2 mph ENE1.9 kmh ENE 2.3 mph3.7 kmh 31.80 in1076.9 mb - 0.00 in0.0 mm 0.06 in1.5 mm
12:20 AM 33.8°F1.0°C 33.5°F0.8°C 99% 1.2 mph ENE1.9 kmh ENE 2.3 mph3.7 kmh 31.80 in1076.9 mb - 0.00 in0.0 mm 0.06 in1.5 mm
12:25 AM 33.8°F1.0°C 33.5°F0.8°C 99% 2.3 mph E3.7 kmh E 2.3 mph3.7 kmh 31.80 in1076.9 mb - 0.00 in0.0 mm 0.06 in1.5 mm
12:30 AM 33.8°F1.0°C 33.5°F0.8°C 99% 2.3 mph E3.7 kmh E 2.3 mph3.7 kmh 31.80 in1076.9 mb - 0.00 in0.0 mm 0.06 in1.5 mm
12:35 AM 33.8°F1.0°C 33.5°F0.8°C 99% 2.3 mph E3.7 kmh E 2.3 mph3.7 kmh 31.80 in1076.9 mb - 0.00 in0.0 mm 0.06 in1.5 mm
12:40 AM 33.8°F1.0°C 33.5°F0.8°C 99% 2.3 mph ENE3.7 kmh ENE 2.3 mph3.7 kmh 31.80 in1076.9 mb - 0.00 in0.0 mm 0.06 in1.5 mm
12:45 AM 33.8°F1.0°C 33.5°F0.8°C 99% 2.3 mph E3.7 kmh E 2.3 mph3.7 kmh 31.80 in1076.9 mb - 0.00 in0.0 mm 0.06 in1.5 mm
12:50 AM 33.8°F1.0°C 33.5°F0.8°C 99% 2.3 mph ENE3.7 kmh ENE 2.3 mph3.7 kmh 31.80 in1076.9 mb - 0.00 in0.0 mm 0.06 in1.5 mm
12:55 AM 33.6°F0.9°C 33.3°F0.7°C 99% 2.3 mph E3.7 kmh E 2.3 mph3.7 kmh 31.80 in1076.9 mb - 0.00 in0.0 mm 0.06 in1.5 mm
01:00 AM 33.6°F0.9°C 33.3°F0.7°C 99% 1.2 mph E1.9 kmh E 2.3 mph3.7 kmh 31.80 in1076.9 mb - 0.00 in0.0 mm 0.00 in0.0 mm
01:10 AM 33.4°F0.8°C 33.2°F0.7°C 99% 2.3 mph NE3.7 kmh NE 2.3 mph3.7 kmh 31.80 in1076.9 mb - 0.00 in0.0 mm 0.00 in0.0 mm
01:15 AM 33.2°F0.7°C 33.0°F0.6°C 99% 2.3 mph ENE3.7 kmh ENE 2.3 mph3.7 kmh 31.80 in1076.9 mb - 0.00 in0.0 mm 0.00 in0.0 mm
01:20 AM 32.9°F0.5°C 32.7°F0.4°C 99% 2.3 mph ENE3.7 kmh ENE 2.3 mph3.7 kmh 31.80 in1076.9 mb - 0.00 in0.0 mm 0.00 in0.0 mm
01:25 AM 32.7°F0.4°C 32.4°F0.2°C 99% 2.3 mph NE3.7 kmh NE 2.3 mph3.7 kmh 31.80 in1076.9 mb - 0.00 in0.0 mm 0.00 in0.0 mm
01:30 AM 32.6°F0.3°C 32.3°F0.2°C 99% 2.3 mph ENE3.7 kmh ENE 2.3 mph3.7 kmh 31.80 in1076.9 mb - 0.00 in0.0 mm 0.00 in0.0 mm
01:35 AM 32.4°F0.2°C 32.1°F0.1°C 99% 3.5 mph NE5.6 kmh NE 3.5 mph5.6 kmh 31.80 in1076.9 mb - 0.00 in0.0 mm 0.00 in0.0 mm
01:40 AM 32.2°F0.1°C 31.9°F-0.1°C 99% 3.5 mph NE5.6 kmh NE 3.5 mph5.6 kmh 31.80 in1076.9 mb - 0.00 in0.0 mm 0.00 in0.0 mm
01:45 AM 32.2°F0.1°C 31.9°F-0.1°C 99% 3.5 mph NE5.6 kmh NE 3.5 mph5.6 kmh 31.80 in1076.9 mb - 0.00 in0.0 mm 0.00 in0.0 mm
01:50 AM 32.0°F0.0°C 31.7°F-0.2°C 99% 3.5 mph NE5.6 kmh NE 4.6 mph7.4 kmh 31.80 in1076.9 mb - 0.00 in0.0 mm 0.00 in0.0 mm
01:55 AM 32.0°F0.0°C 31.7°F-0.2°C 99% 3.5 mph NE5.6 kmh NE 3.5 mph5.6 kmh 31.80 in1076.9 mb - 0.00 in0.0 mm 0.00 in0.0 mm
02:00 AM 31.8°F-0.1°C 31.5°F-0.3°C 99% 3.5 mph NE5.6 kmh NE 3.5 mph5.6 kmh 31.80 in1076.9 mb - 0.00 in0.0 mm 0.00 in0.0 mm
02:10 AM 31.7°F-0.2°C 31.4°F-0.3°C 99% 3.5 mph NE5.6 kmh NE 3.5 mph5.6 kmh 31.80 in1076.9 mb - 0.00 in0.0 mm 0.00 in0.0 mm
02:15 AM 31.7°F-0.2°C 31.4°F-0.3°C 99% 3.5 mph NE5.6 kmh NE 3.5 mph5.6 kmh 31.80 in1076.9 mb - 0.00 in0.0 mm 0.00 in0.0 mm
02:20 AM 31.6°F-0.2°C 31.3°F-0.4°C 99% 3.5 mph NE5.6 kmh NE 3.5 mph5.6 kmh 31.80 in1076.9 mb - 0.00 in0.0 mm 0.00 in0.0 mm
02:25 AM 31.5°F-0.3°C 31.2°F-0.4°C 99% 3.5 mph NE5.6 kmh NE 3.5 mph5.6 kmh 31.80 in1076.9 mb - 0.00 in0.0 mm 0.00 in0.0 mm
02:30 AM 31.5°F-0.3°C 31.2°F-0.4°C 99% 3.5 mph NE5.6 kmh NE 3.5 mph5.6 kmh 31.80 in1076.9 mb - 0.00 in0.0 mm 0.00 in0.0 mm
02:35 AM 31.1°F-0.5°C 30.9°F-0.6°C 99% 2.3 mph NE3.7 kmh NE 3.5 mph5.6 kmh 31.80 in1076.9 mb - 0.00 in0.0 mm 0.00 in0.0 mm
02:40 AM 31.1°F-0.5°C 30.8°F-0.7°C 99% 3.5 mph NE5.6 kmh NE 3.5 mph5.6 kmh 31.80 in1076.9 mb - 0.00 in0.0 mm 0.00 in0.0 mm
02:45 AM 31.1°F-0.5°C 30.8°F-0.7°C 99% 2.3 mph NE3.7 kmh NE 3.5 mph5.6 kmh 31.80 in1076.9 mb - 0.00 in0.0 mm 0.00 in0.0 mm
02:50 AM 30.9°F-0.6°C 30.6°F-0.8°C 99% 2.3 mph NE3.7 kmh NE 2.3 mph3.7 kmh 31.80 in1076.9 mb - 0.00 in0.0 mm 0.00 in0.0 mm
02:55 AM 30.9°F-0.6°C 30.6°F-0.8°C 99% 3.5 mph NE5.6 kmh NE 3.5 mph5.6 kmh 31.80 in1076.9 mb - 0.00 in0.0 mm 0.00 in0.0 mm
03:00 AM 30.9°F-0.6°C 30.6°F-0.8°C 99% 3.5 mph NE5.6 kmh NE 3.5 mph5.6 kmh 31.80 in1076.9 mb - 0.00 in0.0 mm 0.00 in0.0 mm
03:10 AM 30.9°F-0.6°C 30.6°F-0.8°C 99% 3.5 mph NE5.6 kmh NE 3.5 mph5.6 kmh 31.80 in1076.9 mb - 0.00 in0.0 mm 0.00 in0.0 mm
03:15 AM 30.9°F-0.6°C 30.6°F-0.8°C 99% 3.5 mph NNE5.6 kmh NNE 3.5 mph5.6 kmh 31.80 in1076.9 mb - 0.00 in0.0 mm 0.00 in0.0 mm
03:20 AM 30.8°F-0.7°C 30.5°F-0.8°C 99% 2.3 mph NE3.7 kmh NE 3.5 mph5.6 kmh 31.80 in1076.9 mb - 0.00 in0.0 mm 0.00 in0.0 mm
03:25 AM 30.6°F-0.8°C 30.3°F-0.9°C 99% 2.3 mph NNE3.7 kmh NNE 2.3 mph3.7 kmh 31.80 in1076.9 mb - 0.00 in0.0 mm 0.00 in0.0 mm
03:30 AM 30.4°F-0.9°C 30.1°F-1.1°C 99% 2.3 mph NNE3.7 kmh NNE 3.5 mph5.6 kmh 31.80 in1076.9 mb - 0.00 in0.0 mm 0.00 in0.0 mm
03:35 AM 30.4°F-0.9°C 30.1°F-1.1°C 99% 2.3 mph NNE3.7 kmh NNE 2.3 mph3.7 kmh 31.80 in1076.9 mb - 0.00 in0.0 mm 0.00 in0.0 mm
03:40 AM 30.2°F-1.0°C 29.9°F-1.2°C 99% 2.3 mph NE3.7 kmh NE 2.3 mph3.7 kmh 31.80 in1076.9 mb - 0.00 in0.0 mm 0.00 in0.0 mm
03:45 AM 30.2°F-1.0°C 29.9°F-1.2°C 99% 3.5 mph NE5.6 kmh NE 3.5 mph5.6 kmh 31.80 in1076.9 mb - 0.00 in0.0 mm 0.00 in0.0 mm
03:50 AM 30.2°F-1.0°C 29.9°F-1.2°C 99% 3.5 mph NE5.6 kmh NE 3.5 mph5.6 kmh 31.80 in1076.9 mb - 0.00 in0.0 mm 0.00 in0.0 mm
03:55 AM 30.2°F-1.0°C 29.9°F-1.2°C 99% 3.5 mph NE5.6 kmh NE 3.5 mph5.6 kmh 31.80 in1076.9 mb - 0.00 in0.0 mm 0.00 in0.0 mm
04:00 AM 30.2°F-1.0°C 29.9°F-1.2°C 99% 3.5 mph ENE5.6 kmh ENE 3.5 mph5.6 kmh 31.80 in1076.9 mb - 0.00 in0.0 mm 0.00 in0.0 mm
04:10 AM 30.2°F-1.0°C 29.9°F-1.2°C 99% 2.3 mph NE3.7 kmh NE 2.3 mph3.7 kmh 31.80 in1076.9 mb - 0.00 in0.0 mm 0.00 in0.0 mm
04:15 AM 30.4°F-0.9°C 30.1°F-1.1°C 99% 2.3 mph NE3.7 kmh NE 2.3 mph3.7 kmh 31.80 in1076.9 mb - 0.00 in0.0 mm 0.00 in0.0 mm
04:20 AM 30.6°F-0.8°C 30.3°F-0.9°C 99% 2.3 mph NE3.7 kmh NE 2.3 mph3.7 kmh 31.80 in1076.9 mb - 0.00 in0.0 mm 0.00 in0.0 mm
04:25 AM 30.6°F-0.8°C 30.3°F-0.9°C 99% 2.3 mph NNE3.7 kmh NNE 2.3 mph3.7 kmh 31.80 in1076.9 mb - 0.00 in0.0 mm 0.00 in0.0 mm
04:30 AM 30.8°F-0.7°C 30.5°F-0.8°C 99% 3.5 mph NNE5.6 kmh NNE 4.6 mph7.4 kmh 31.80 in1076.9 mb - 0.00 in0.0 mm 0.00 in0.0 mm
04:35 AM 30.8°F-0.7°C 30.5°F-0.8°C 99% 3.5 mph NNE5.6 kmh NNE 4.6 mph7.4 kmh 31.80 in1076.9 mb - 0.00 in0.0 mm 0.00 in0.0 mm
04:40 AM 31.2°F-0.4°C 30.9°F-0.6°C 99% 4.6 mph NE7.4 kmh NE 4.6 mph7.4 kmh 31.80 in1076.9 mb - 0.00 in0.0 mm 0.00 in0.0 mm
04:45 AM 31.7°F-0.2°C 31.4°F-0.3°C 99% 4.6 mph NE7.4 kmh NE 4.6 mph7.4 kmh 31.80 in1076.9 mb - 0.00 in0.0 mm 0.00 in0.0 mm
04:50 AM 31.9°F-0.1°C 31.7°F-0.2°C 99% 4.6 mph NE7.4 kmh NE 4.6 mph7.4 kmh 31.80 in1076.9 mb - 0.00 in0.0 mm 0.00 in0.0 mm
04:55 AM 32.0°F0.0°C 31.7°F-0.2°C 99% 4.6 mph E7.4 kmh E 4.6 mph7.4 kmh 31.80 in1076.9 mb - 0.00 in0.0 mm 0.00 in0.0 mm
05:00 AM 32.0°F0.0°C 31.7°F-0.2°C 99% 3.5 mph NE5.6 kmh NE 4.6 mph7.4 kmh 31.80 in1076.9 mb - 0.00 in0.0 mm 0.00 in0.0 mm
05:10 AM 32.0°F0.0°C 31.8°F-0.1°C 99% 5.8 mph NE9.3 kmh NE 5.8 mph9.3 kmh 31.80 in1076.9 mb - 0.00 in0.0 mm 0.00 in0.0 mm
05:15 AM 32.2°F0.1°C 31.9°F-0.1°C 99% 4.6 mph NE7.4 kmh NE 5.8 mph9.3 kmh 31.80 in1076.9 mb - 0.00 in0.0 mm 0.00 in0.0 mm
05:20 AM 32.4°F0.2°C 32.1°F0.1°C 99% 5.8 mph NE9.3 kmh NE 5.8 mph9.3 kmh 31.80 in1076.9 mb - 0.00 in0.0 mm 0.00 in0.0 mm
05:25 AM 32.4°F0.2°C 32.1°F0.1°C 99% 4.6 mph NE7.4 kmh NE 5.8 mph9.3 kmh 31.80 in1076.9 mb - 0.00 in0.0 mm 0.00 in0.0 mm
05:30 AM 32.4°F0.2°C 32.1°F0.1°C 99% 4.6 mph NE7.4 kmh NE 4.6 mph7.4 kmh 31.80 in1076.9 mb - 0.00 in0.0 mm 0.00 in0.0 mm
05:35 AM 32.4°F0.2°C 32.1°F0.1°C 99% 4.6 mph E7.4 kmh E 5.8 mph9.3 kmh 31.80 in1076.9 mb - 0.00 in0.0 mm 0.00 in0.0 mm
05:40 AM 32.6°F0.3°C 32.3°F0.2°C 99% 5.8 mph NE9.3 kmh NE 5.8 mph9.3 kmh 31.80 in1076.9 mb - 0.00 in0.0 mm 0.00 in0.0 mm
05:45 AM 32.7°F0.4°C 32.4°F0.2°C 99% 4.6 mph NE7.4 kmh NE 4.6 mph7.4 kmh 31.80 in1076.9 mb - 0.00 in0.0 mm 0.00 in0.0 mm
05:50 AM 32.9°F0.5°C 32.6°F0.3°C 99% 3.5 mph NE5.6 kmh NE 4.6 mph7.4 kmh 31.80 in1076.9 mb - 0.00 in0.0 mm 0.00 in0.0 mm
05:55 AM 32.9°F0.5°C 32.6°F0.3°C 99% 4.6 mph E7.4 kmh E 5.8 mph9.3 kmh 31.80 in1076.9 mb - 0.00 in0.0 mm 0.00 in0.0 mm
06:00 AM 33.1°F0.6°C 32.8°F0.4°C 99% 3.5 mph ENE5.6 kmh ENE 4.6 mph7.4 kmh 31.80 in1076.9 mb - 0.00 in0.0 mm 0.00 in0.0 mm
06:10 AM 33.1°F0.6°C 32.8°F0.4°C 99% 4.6 mph NE7.4 kmh NE 5.8 mph9.3 kmh 31.80 in1076.9 mb - 0.00 in0.0 mm 0.00 in0.0 mm
06:15 AM 33.3°F0.7°C 33.0°F0.6°C 99% 3.5 mph E5.6 kmh E 4.6 mph7.4 kmh 31.80 in1076.9 mb - 0.00 in0.0 mm 0.00 in0.0 mm
06:20 AM 33.3°F0.7°C 33.0°F0.6°C 99% 3.5 mph NE5.6 kmh NE 4.6 mph7.4 kmh 31.80 in1076.9 mb - 0.00 in0.0 mm 0.00 in0.0 mm
06:25 AM 33.3°F0.7°C 33.0°F0.6°C 99% 4.6 mph NE7.4 kmh NE 4.6 mph7.4 kmh 31.80 in1076.9 mb - 0.00 in0.0 mm 0.00 in0.0 mm
06:30 AM 33.5°F0.8°C 33.2°F0.7°C 99% 3.5 mph NE5.6 kmh NE 4.6 mph7.4 kmh 31.80 in1076.9 mb - 0.00 in0.0 mm 0.00 in0.0 mm
06:35 AM 33.5°F0.8°C 33.2°F0.7°C 99% 4.6 mph E7.4 kmh E 4.6 mph7.4 kmh 31.80 in1076.9 mb - 0.00 in0.0 mm 0.00 in0.0 mm
06:40 AM 33.6°F0.9°C 33.3°F0.7°C 99% 4.6 mph ENE7.4 kmh ENE 4.6 mph7.4 kmh 31.80 in1076.9 mb - 0.00 in0.0 mm 0.00 in0.0 mm
06:45 AM 33.6°F0.9°C 33.3°F0.7°C 99% 4.6 mph NE7.4 kmh NE 4.6 mph7.4 kmh 31.80 in1076.9 mb - 0.00 in0.0 mm 0.00 in0.0 mm
06:50 AM 33.6°F0.9°C 33.3°F0.7°C 99% 4.6 mph NE7.4 kmh NE 4.6 mph7.4 kmh 31.80 in1076.9 mb - 0.00 in0.0 mm 0.00 in0.0 mm
06:55 AM 33.6°F0.9°C 33.3°F0.7°C 99% 4.6 mph E7.4 kmh E 4.6 mph7.4 kmh 31.80 in1076.9 mb - 0.00 in0.0 mm 0.00 in0.0 mm
07:00 AM 33.6°F0.9°C 33.3°F0.7°C 99% 3.5 mph NE5.6 kmh NE 4.6 mph7.4 kmh 31.80 in1076.9 mb - 0.00 in0.0 mm 0.00 in0.0 mm
07:10 AM 33.8°F1.0°C 33.5°F0.8°C 99% 4.6 mph ENE7.4 kmh ENE 4.6 mph7.4 kmh 31.80 in1076.9 mb - 0.00 in0.0 mm 0.00 in0.0 mm
07:15 AM 33.8°F1.0°C 33.5°F0.8°C 99% 4.6 mph NE7.4 kmh NE 4.6 mph7.4 kmh 31.80 in1076.9 mb - 0.00 in0.0 mm 0.00 in0.0 mm
07:20 AM 33.8°F1.0°C 33.5°F0.8°C 99% 4.6 mph NE7.4 kmh NE 5.8 mph9.3 kmh 31.80 in1076.9 mb - 0.00 in0.0 mm 0.00 in0.0 mm
07:25 AM 33.8°F1.0°C 33.5°F0.8°C 99% 4.6 mph ENE7.4 kmh ENE 4.6 mph7.4 kmh 31.80 in1076.9 mb - 0.00 in0.0 mm 0.00 in0.0 mm
07:30 AM 34.0°F1.1°C 33.7°F0.9°C 99% 4.6 mph E7.4 kmh E 4.6 mph7.4 kmh 31.80 in1076.9 mb - 0.00 in0.0 mm 0.00 in0.0 mm
07:35 AM 34.0°F1.1°C 33.7°F0.9°C 99% 4.6 mph E7.4 kmh E 4.6 mph7.4 kmh 31.80 in1076.9 mb - 0.00 in0.0 mm 0.00 in0.0 mm
07:40 AM 34.2°F1.2°C 33.9°F1.1°C 99% 5.8 mph E9.3 kmh E 5.8 mph9.3 kmh 31.80 in1076.9 mb - 0.00 in0.0 mm 0.00 in0.0 mm
07:45 AM 34.4°F1.3°C 33.9°F1.1°C 98% 5.8 mph E9.3 kmh E 6.9 mph11.1 kmh 31.80 in1076.9 mb - 0.00 in0.0 mm 0.00 in0.0 mm
07:50 AM 34.5°F1.4°C 34.0°F1.1°C 98% 4.6 mph E7.4 kmh E 5.8 mph9.3 kmh 31.80 in1076.9 mb - 0.00 in0.0 mm 0.00 in0.0 mm
07:55 AM 34.7°F1.5°C 34.2°F1.2°C 98% 5.8 mph E9.3 kmh E 6.9 mph11.1 kmh 31.80 in1076.9 mb - 0.00 in0.0 mm 0.00 in0.0 mm
08:00 AM 34.7°F1.5°C 34.2°F1.2°C 98% 4.6 mph E7.4 kmh E 5.8 mph9.3 kmh 31.80 in1076.9 mb - 0.00 in0.0 mm 0.00 in0.0 mm
08:10 AM 34.7°F1.5°C 34.2°F1.2°C 98% 4.6 mph E7.4 kmh E 5.8 mph9.3 kmh 31.80 in1076.9 mb - 0.00 in0.0 mm 0.00 in0.0 mm
08:15 AM 34.7°F1.5°C 33.9°F1.1°C 97% 5.8 mph ENE9.3 kmh ENE 5.8 mph9.3 kmh 31.80 in1076.9 mb - 0.00 in0.0 mm 0.00 in0.0 mm
08:20 AM 34.7°F1.5°C 33.9°F1.1°C 97% 4.6 mph E7.4 kmh E 5.8 mph9.3 kmh 31.80 in1076.9 mb - 0.00 in0.0 mm 0.00 in0.0 mm
08:25 AM 34.7°F1.5°C 33.9°F1.1°C 97% 5.8 mph E9.3 kmh E 5.8 mph9.3 kmh 31.80 in1076.9 mb - 0.00 in0.0 mm 0.00 in0.0 mm
08:30 AM 34.7°F1.5°C 33.9°F1.1°C 97% 4.6 mph E7.4 kmh E 5.8 mph9.3 kmh 31.80 in1076.9 mb - 0.00 in0.0 mm 0.00 in0.0 mm
08:35 AM 34.9°F1.6°C 34.1°F1.2°C 97% 6.9 mph E11.1 kmh E 5.8 mph9.3 kmh 31.80 in1076.9 mb - 0.00 in0.0 mm 0.00 in0.0 mm
08:40 AM 35.1°F1.7°C 34.3°F1.3°C 97% 5.8 mph E9.3 kmh E 5.8 mph9.3 kmh 31.80 in1076.9 mb - 0.00 in0.0 mm 0.00 in0.0 mm
08:45 AM 35.1°F1.7°C 34.3°F1.3°C 97% 6.9 mph E11.1 kmh E 8.1 mph13.0 kmh 31.80 in1076.9 mb - 0.00 in0.0 mm 0.00 in0.0 mm
08:50 AM 35.1°F1.7°C 34.3°F1.3°C 97% 4.6 mph E7.4 kmh E 5.8 mph9.3 kmh 31.80 in1076.9 mb - 0.00 in0.0 mm 0.00 in0.0 mm
08:55 AM 35.1°F1.7°C 34.3°F1.3°C 97% 5.8 mph E9.3 kmh E 6.9 mph11.1 kmh 31.80 in1076.9 mb - 0.00 in0.0 mm 0.00 in0.0 mm
09:00 AM 35.2°F1.8°C 34.4°F1.3°C 97% 6.9 mph E11.1 kmh E 9.2 mph14.8 kmh 31.80 in1076.9 mb - 0.00 in0.0 mm 0.00 in0.0 mm
09:10 AM 35.3°F1.8°C 34.5°F1.4°C 97% 5.8 mph ENE9.3 kmh ENE 8.1 mph13.0 kmh 31.80 in1076.9 mb - 0.00 in0.0 mm 0.00 in0.0 mm
09:15 AM 35.3°F1.8°C 34.5°F1.4°C 97% 5.8 mph NE9.3 kmh NE 5.8 mph9.3 kmh 31.80 in1076.9 mb - 0.00 in0.0 mm 0.00 in0.0 mm
09:20 AM 35.3°F1.8°C 34.5°F1.4°C 97% 5.8 mph E9.3 kmh E 5.8 mph9.3 kmh 31.80 in1076.9 mb - 0.00 in0.0 mm 0.00 in0.0 mm
09:25 AM 35.1°F1.7°C 34.3°F1.3°C 97% 5.8 mph ENE9.3 kmh ENE 5.8 mph9.3 kmh 31.80 in1076.9 mb - 0.00 in0.0 mm 0.00 in0.0 mm
09:30 AM 35.1°F1.7°C 34.3°F1.3°C 97% 5.8 mph E9.3 kmh E 6.9 mph11.1 kmh 31.80 in1076.9 mb - 0.00 in0.0 mm 0.00 in0.0 mm
09:35 AM 35.1°F1.7°C 34.3°F1.3°C 97% 6.9 mph NE11.1 kmh NE 6.9 mph11.1 kmh 31.80 in1076.9 mb - 0.00 in0.0 mm 0.00 in0.0 mm
09:40 AM 35.1°F1.7°C 34.6°F1.4°C 98% 5.8 mph ENE9.3 kmh ENE 6.9 mph11.1 kmh 31.80 in1076.9 mb - 0.00 in0.0 mm 0.00 in0.0 mm
09:45 AM 35.1°F1.7°C 34.6°F1.4°C 98% 6.9 mph NE11.1 kmh NE 6.9 mph11.1 kmh 31.80 in1076.9 mb - 0.00 in0.0 mm 0.00 in0.0 mm
09:50 AM 35.1°F1.7°C 34.6°F1.4°C 98% 6.9 mph NE11.1 kmh NE 6.9 mph11.1 kmh 31.80 in1076.9 mb - 0.00 in0.0 mm 0.00 in0.0 mm
09:55 AM 35.1°F1.7°C 34.6°F1.4°C 98% 6.9 mph ENE11.1 kmh ENE 6.9 mph11.1 kmh 31.80 in1076.9 mb - 0.00 in0.0 mm 0.00 in0.0 mm
10:00 AM 35.1°F1.7°C 34.6°F1.4°C 98% 6.9 mph E11.1 kmh E 6.9 mph11.1 kmh 31.80 in1076.9 mb - 0.00 in0.0 mm 0.00 in0.0 mm
10:10 AM 35.3°F1.8°C 34.8°F1.6°C 98% 4.6 mph NE7.4 kmh NE 4.6 mph7.4 kmh 31.80 in1076.9 mb - 0.00 in0.0 mm 0.00 in0.0 mm
10:15 AM 35.4°F1.9°C 34.6°F1.4°C 97% 6.9 mph E11.1 kmh E 6.9 mph11.1 kmh 31.80 in1076.9 mb - 0.00 in0.0 mm 0.00 in0.0 mm
10:20 AM 35.6°F2.0°C 34.6°F1.4°C 96% 5.8 mph NE9.3 kmh NE 6.9 mph11.1 kmh 31.80 in1076.9 mb - 0.00 in0.0 mm 0.00 in0.0 mm
10:25 AM 35.6°F2.0°C 34.6°F1.4°C 96% 5.8 mph E9.3 kmh E 6.9 mph11.1 kmh 31.80 in1076.9 mb - 0.00 in0.0 mm 0.00 in0.0 mm
10:30 AM 35.8°F2.1°C 34.8°F1.6°C 96% 5.8 mph NE9.3 kmh NE 5.8 mph9.3 kmh 31.80 in1076.9 mb - 0.02 in0.5 mm 0.02 in0.5 mm
10:35 AM 35.8°F2.1°C 34.8°F1.6°C 96% 8.1 mph ENE13.0 kmh ENE 10.4 mph16.7 kmh 31.80 in1076.9 mb - 0.02 in0.5 mm 0.02 in0.5 mm
10:40 AM 35.8°F2.1°C 34.8°F1.6°C 96% 6.9 mph E11.1 kmh E 10.4 mph16.7 kmh 31.80 in1076.9 mb - 0.02 in0.5 mm 0.02 in0.5 mm
10:45 AM 35.8°F2.1°C 34.5°F1.4°C 95% 6.9 mph E11.1 kmh E 9.2 mph14.8 kmh 31.80 in1076.9 mb - 0.02 in0.5 mm 0.02 in0.5 mm
10:50 AM 36.0°F2.2°C 34.7°F1.5°C 95% 9.2 mph ENE14.8 kmh ENE 10.4 mph16.7 kmh 31.80 in1076.9 mb - 0.02 in0.5 mm 0.02 in0.5 mm
10:55 AM 36.0°F2.2°C 34.4°F1.3°C 94% 8.1 mph E13.0 kmh E 8.1 mph13.0 kmh 31.80 in1076.9 mb - 0.02 in0.5 mm 0.02 in0.5 mm
11:00 AM 36.2°F2.3°C 34.6°F1.4°C 94% 5.8 mph E9.3 kmh E 5.8 mph9.3 kmh 31.80 in1076.9 mb - 0.02 in0.5 mm 0.02 in0.5 mm
11:10 AM 36.3°F2.4°C 34.5°F1.4°C 93% 8.1 mph E13.0 kmh E 8.1 mph13.0 kmh 31.80 in1076.9 mb - 0.03 in0.8 mm 0.03 in0.8 mm
11:15 AM 36.3°F2.4°C 34.5°F1.4°C 93% 9.2 mph E14.8 kmh E 9.2 mph14.8 kmh 31.80 in1076.9 mb - 0.03 in0.8 mm 0.03 in0.8 mm
11:20 AM 36.3°F2.4°C 34.5°F1.4°C 93% 8.1 mph E13.0 kmh E 11.5 mph18.5 kmh 31.80 in1076.9 mb - 0.03 in0.8 mm 0.03 in0.8 mm
11:25 AM 36.3°F2.4°C 34.5°F1.4°C 93% 10.4 mph E16.7 kmh E 11.5 mph18.5 kmh 31.80 in1076.9 mb - 0.04 in1.0 mm 0.04 in1.0 mm
11:30 AM 36.3°F2.4°C 34.5°F1.4°C 93% 11.5 mph E18.5 kmh E 12.7 mph20.4 kmh 31.80 in1076.9 mb - 0.02 in0.5 mm 0.04 in1.0 mm
11:35 AM 36.3°F2.4°C 34.5°F1.4°C 93% 10.4 mph E16.7 kmh E 11.5 mph18.5 kmh 31.80 in1076.9 mb - 0.02 in0.5 mm 0.04 in1.0 mm
11:40 AM 36.2°F2.3°C 34.4°F1.3°C 93% 10.4 mph E16.7 kmh E 10.4 mph16.7 kmh 31.80 in1076.9 mb - 0.04 in1.0 mm 0.06 in1.5 mm
11:45 AM 36.2°F2.3°C 34.6°F1.4°C 94% 6.9 mph ESE11.1 kmh ESE 9.2 mph14.8 kmh 31.80 in1076.9 mb - 0.04 in1.0 mm 0.06 in1.5 mm
11:50 AM 36.2°F2.3°C 34.6°F1.4°C 94% 9.2 mph E14.8 kmh E 9.2 mph14.8 kmh 31.80 in1076.9 mb - 0.04 in1.0 mm 0.06 in1.5 mm
11:55 AM 36.2°F2.3°C 34.6°F1.4°C 94% 8.1 mph ESE13.0 kmh ESE 8.1 mph13.0 kmh 31.80 in1076.9 mb - 0.04 in1.0 mm 0.06 in1.5 mm
12:00 PM 36.2°F2.3°C 34.9°F1.6°C 95% 8.1 mph E13.0 kmh E 10.4 mph16.7 kmh 31.80 in1076.9 mb - 0.04 in1.0 mm 0.06 in1.5 mm
12:10 PM 36.2°F2.3°C 35.2°F1.8°C 96% 8.1 mph E13.0 kmh E 10.4 mph16.7 kmh 31.80 in1076.9 mb - 0.05 in1.3 mm 0.08 in2.0 mm
12:11 PM 36.2°F2.3°C 35.2°F1.8°C 96% 8.1 mph ESE13.0 kmh ESE 8.1 mph13.0 kmh 31.80 in1076.9 mb - 0.05 in1.3 mm 0.08 in2.0 mm
12:13 PM 36.2°F2.3°C 35.1°F1.7°C 96% 9.2 mph E14.8 kmh E -- 31.80 in1076.9 mb 0.05 in1.3 mm 1.50 in38.1 mm 0.08 in2.0 mm
12:15 PM 36.2°F2.3°C 35.1°F1.7°C 96% 9.1 mph E14.6 kmh E -- 31.80 in1076.9 mb 0.05 in1.3 mm 0.00 in0.0 mm 0.08 in2.0 mm
12:17 PM 36.2°F2.3°C 35.1°F1.7°C 96% 9.4 mph E15.1 kmh E -- 31.80 in1076.9 mb 0.05 in1.3 mm 0.00 in0.0 mm 0.08 in2.0 mm
12:19 PM 36.2°F2.3°C 35.1°F1.7°C 96% 10.4 mph E16.7 kmh E -- 31.80 in1076.9 mb 0.05 in1.3 mm 0.00 in0.0 mm 0.08 in2.0 mm
12:21 PM 34.9°F1.6°C 33.8°F1.0°C 96% 6.5 mph E10.5 kmh E -- -- 0.00 in0.0 mm 0.00 in0.0 mm 0.66 in16.8 mm
12:22 PM 34.9°F1.6°C 33.8°F1.0°C 96% 8.3 mph E13.4 kmh E -- -- 0.00 in0.0 mm 0.00 in0.0 mm 0.66 in16.8 mm
12:23 PM 34.9°F1.6°C 33.8°F1.0°C 96% 7.6 mph ESE12.2 kmh ESE -- -- 0.00 in0.0 mm 0.00 in0.0 mm 0.66 in16.8 mm
12:24 PM 34.9°F1.6°C 33.8°F1.0°C 96% 6.5 mph ENE10.5 kmh ENE -- -- 0.00 in0.0 mm 0.00 in0.0 mm 0.66 in16.8 mm
12:26 PM 34.9°F1.6°C 33.8°F1.0°C 96% 7.1 mph E11.4 kmh E -- -- 0.00 in0.0 mm 0.00 in0.0 mm 0.66 in16.8 mm
12:27 PM 35.1°F1.7°C 34.0°F1.1°C 96% 7.1 mph ENE11.4 kmh ENE -- -- 0.00 in0.0 mm 0.00 in0.0 mm 0.66 in16.8 mm
12:28 PM 35.1°F1.7°C 34.0°F1.1°C 96% 7.1 mph NE11.4 kmh NE -- -- 0.00 in0.0 mm 0.00 in0.0 mm 0.66 in16.8 mm
12:29 PM 35.1°F1.7°C 34.0°F1.1°C 96% 7.9 mph E12.7 kmh E -- -- 0.00 in0.0 mm 0.00 in0.0 mm 0.66 in16.8 mm
12:31 PM 35.1°F1.7°C 34.0°F1.1°C 96% 7.2 mph ESE11.6 kmh ESE 10.4 mph16.7 kmh -- 0.00 in0.0 mm 0.00 in0.0 mm 0.66 in16.8 mm
12:32 PM 35.1°F1.7°C 34.0°F1.1°C 96% 7.3 mph E11.7 kmh E -- -- 0.00 in0.0 mm 0.00 in0.0 mm 0.66 in16.8 mm
12:33 PM 35.1°F1.7°C 34.0°F1.1°C 96% 6.7 mph ENE10.8 kmh ENE -- -- 0.00 in0.0 mm 0.00 in0.0 mm 0.66 in16.8 mm
12:34 PM 35.1°F1.7°C 34.0°F1.1°C 96% 6.4 mph ESE10.3 kmh ESE -- -- 0.00 in0.0 mm 0.00 in0.0 mm 0.66 in16.8 mm
12:36 PM 35.1°F1.7°C 34.0°F1.1°C 96% 6.7 mph E10.8 kmh E -- -- 0.00 in0.0 mm 0.00 in0.0 mm 0.66 in16.8 mm
12:37 PM 35.1°F1.7°C 34.0°F1.1°C 96% 8.1 mph ENE13.0 kmh ENE -- -- 0.00 in0.0 mm 0.00 in0.0 mm 0.66 in16.8 mm
12:38 PM 35.1°F1.7°C 34.0°F1.1°C 96% 8.1 mph E13.0 kmh E -- -- 0.00 in0.0 mm 0.00 in0.0 mm 0.66 in16.8 mm
12:39 PM 35.1°F1.7°C 34.0°F1.1°C 96% 8.3 mph E13.4 kmh E 13.0 mph20.9 kmh -- 0.00 in0.0 mm 0.00 in0.0 mm 0.66 in16.8 mm
12:40 PM 35.1°F1.7°C 34.0°F1.1°C 96% 9.0 mph ESE14.5 kmh ESE -- -- 0.00 in0.0 mm 0.00 in0.0 mm 0.66 in16.8 mm
12:48 PM 35.1°F1.7°C 34.0°F1.1°C 96% 8.5 mph ENE13.7 kmh ENE -- -- 0.00 in0.0 mm 0.00 in0.0 mm 0.66 in16.8 mm
12:49 PM 35.1°F1.7°C 34.0°F1.1°C 96% 7.5 mph ESE12.1 kmh ESE -- -- 0.00 in0.0 mm 0.00 in0.0 mm 0.66 in16.8 mm
12:50 PM 35.1°F1.7°C 34.0°F1.1°C 96% 7.4 mph E11.9 kmh E -- -- 0.00 in0.0 mm 0.00 in0.0 mm 0.66 in16.8 mm
12:51 PM 35.1°F1.7°C 34.0°F1.1°C 96% 7.4 mph E11.9 kmh E -- -- 0.00 in0.0 mm 0.00 in0.0 mm 0.66 in16.8 mm
12:52 PM 35.1°F1.7°C 34.0°F1.1°C 96% 6.4 mph NNE10.3 kmh NNE -- -- 0.00 in0.0 mm 0.00 in0.0 mm 0.66 in16.8 mm
12:54 PM 35.1°F1.7°C 34.3°F1.3°C 97% 6.3 mph ESE10.1 kmh ESE -- -- 0.00 in0.0 mm 0.00 in0.0 mm 0.66 in16.8 mm
12:55 PM 35.1°F1.7°C 34.3°F1.3°C 97% 6.9 mph ESE11.1 kmh ESE -- -- 0.00 in0.0 mm 0.00 in0.0 mm 0.66 in16.8 mm
12:59 PM 35.1°F1.7°C 34.3°F1.3°C 97% 7.4 mph E11.9 kmh E -- -- 0.02 in0.5 mm 0.30 in7.6 mm 0.02 in0.5 mm
01:00 PM 34.9°F1.6°C 34.1°F1.2°C 97% 7.5 mph E12.1 kmh E -- -- 0.02 in0.5 mm 0.00 in0.0 mm 0.02 in0.5 mm
01:02 PM 34.9°F1.6°C 34.1°F1.2°C 97% 7.6 mph E12.2 kmh E -- -- 0.02 in0.5 mm 0.00 in0.0 mm 0.02 in0.5 mm
01:03 PM 34.9°F1.6°C 34.1°F1.2°C 97% 7.1 mph E11.4 kmh E -- -- 0.02 in0.5 mm 0.00 in0.0 mm 0.02 in0.5 mm
01:04 PM 34.7°F1.5°C 33.9°F1.1°C 97% 7.7 mph E12.4 kmh E -- -- 0.02 in0.5 mm 0.00 in0.0 mm 0.02 in0.5 mm
01:05 PM 34.7°F1.5°C 33.9°F1.1°C 97% 7.7 mph ENE12.4 kmh ENE -- -- 0.02 in0.5 mm 0.00 in0.0 mm 0.02 in0.5 mm
01:07 PM 34.7°F1.5°C 33.9°F1.1°C 97% 6.9 mph ESE11.1 kmh ESE -- -- 0.02 in0.5 mm 0.00 in0.0 mm 0.02 in0.5 mm
01:08 PM 34.7°F1.5°C 33.9°F1.1°C 97% 7.5 mph E12.1 kmh E -- -- 0.02 in0.5 mm 0.00 in0.0 mm 0.02 in0.5 mm
01:12 PM 34.7°F1.5°C 33.9°F1.1°C 97% 7.5 mph ENE12.1 kmh ENE -- -- 0.02 in0.5 mm 0.00 in0.0 mm 0.02 in0.5 mm
01:15 PM 34.7°F1.5°C 33.9°F1.1°C 97% 7.2 mph ENE11.6 kmh ENE 9.4 mph15.1 kmh -- 0.02 in0.5 mm 0.00 in0.0 mm 0.02 in0.5 mm
01:17 PM 34.7°F1.5°C 33.9°F1.1°C 97% 5.8 mph ESE9.3 kmh ESE -- -- 0.02 in0.5 mm 0.00 in0.0 mm 0.02 in0.5 mm
01:18 PM 34.7°F1.5°C 33.9°F1.1°C 97% 5.5 mph ESE8.9 kmh ESE -- -- 0.02 in0.5 mm 0.00 in0.0 mm 0.02 in0.5 mm
01:19 PM 34.7°F1.5°C 33.9°F1.1°C 97% 6.6 mph E10.6 kmh E -- -- 0.02 in0.5 mm 0.00 in0.0 mm 0.02 in0.5 mm
01:20 PM 34.7°F1.5°C 33.9°F1.1°C 97% 6.9 mph E11.1 kmh E 9.9 mph15.9 kmh -- 0.02 in0.5 mm 0.00 in0.0 mm 0.02 in0.5 mm
01:21 PM 34.7°F1.5°C 33.9°F1.1°C 97% 7.6 mph E12.2 kmh E -- -- 0.02 in0.5 mm 0.00 in0.0 mm 0.02 in0.5 mm
01:22 PM 34.5°F1.4°C 33.7°F0.9°C 97% 6.7 mph E10.8 kmh E -- -- 0.02 in0.5 mm 0.00 in0.0 mm 0.02 in0.5 mm
01:24 PM 34.5°F1.4°C 33.7°F0.9°C 97% 6.3 mph E10.1 kmh E -- -- 0.02 in0.5 mm 0.00 in0.0 mm 0.02 in0.5 mm
01:25 PM 34.5°F1.4°C 33.7°F0.9°C 97% 6.4 mph ENE10.3 kmh ENE -- -- 0.02 in0.5 mm 0.00 in0.0 mm 0.02 in0.5 mm
01:26 PM 34.5°F1.4°C 33.7°F0.9°C 97% 5.9 mph ENE9.5 kmh ENE -- -- 0.02 in0.5 mm 0.00 in0.0 mm 0.02 in0.5 mm
01:27 PM 34.5°F1.4°C 33.7°F0.9°C 97% 5.3 mph E8.5 kmh E -- -- 0.02 in0.5 mm 0.00 in0.0 mm 0.02 in0.5 mm
01:29 PM 34.5°F1.4°C 34.0°F1.1°C 98% 5.6 mph E9.0 kmh E -- -- 0.02 in0.5 mm 0.00 in0.0 mm 0.02 in0.5 mm
01:30 PM 34.5°F1.4°C 34.0°F1.1°C 98% 6.6 mph ESE10.6 kmh ESE -- -- 0.02 in0.5 mm 0.00 in0.0 mm 0.02 in0.5 mm
01:31 PM 34.3°F1.3°C 33.8°F1.0°C 98% 7.8 mph E12.6 kmh E -- -- 0.02 in0.5 mm 0.00 in0.0 mm 0.02 in0.5 mm
01:32 PM 34.3°F1.3°C 33.8°F1.0°C 98% 7.2 mph ESE11.6 kmh ESE -- -- 0.02 in0.5 mm 0.00 in0.0 mm 0.02 in0.5 mm
01:33 PM 34.3°F1.3°C 33.8°F1.0°C 98% 6.7 mph ENE10.8 kmh ENE -- -- 0.02 in0.5 mm 0.00 in0.0 mm 0.02 in0.5 mm
01:35 PM 34.3°F1.3°C 33.8°F1.0°C 98% 6.7 mph ENE10.8 kmh ENE -- -- 0.02 in0.5 mm 0.00 in0.0 mm 0.02 in0.5 mm
01:36 PM 34.3°F1.3°C 33.8°F1.0°C 98% 7.3 mph E11.7 kmh E -- -- 0.02 in0.5 mm 0.00 in0.0 mm 0.02 in0.5 mm
01:37 PM 34.3°F1.3°C 33.8°F1.0°C 98% 7.7 mph E12.4 kmh E -- -- 0.02 in0.5 mm 0.00 in0.0 mm 0.02 in0.5 mm
01:38 PM 34.3°F1.3°C 33.8°F1.0°C 98% 7.2 mph E11.6 kmh E -- -- 0.02 in0.5 mm 0.00 in0.0 mm 0.02 in0.5 mm
01:40 PM 34.3°F1.3°C 33.8°F1.0°C 98% 6.5 mph ENE10.5 kmh ENE -- -- 0.02 in0.5 mm 0.00 in0.0 mm 0.02 in0.5 mm
01:41 PM 34.3°F1.3°C 33.8°F1.0°C 98% 5.9 mph E9.5 kmh E 7.8 mph12.6 kmh -- 0.02 in0.5 mm 0.00 in0.0 mm 0.02 in0.5 mm
01:42 PM 34.3°F1.3°C 33.8°F1.0°C 98% 6.9 mph E11.1 kmh E -- -- 0.02 in0.5 mm 0.00 in0.0 mm 0.02 in0.5 mm
01:43 PM 34.3°F1.3°C 33.8°F1.0°C 98% 8.0 mph E12.9 kmh E -- -- 0.02 in0.5 mm 0.00 in0.0 mm 0.02 in0.5 mm
01:45 PM 34.3°F1.3°C 33.8°F1.0°C 98% 6.6 mph E10.6 kmh E -- -- 0.02 in0.5 mm 0.00 in0.0 mm 0.02 in0.5 mm
01:46 PM 34.3°F1.3°C 33.8°F1.0°C 98% 7.3 mph ENE11.7 kmh ENE -- -- 0.02 in0.5 mm 0.00 in0.0 mm 0.02 in0.5 mm
01:47 PM 34.3°F1.3°C 33.8°F1.0°C 98% 8.0 mph ENE12.9 kmh ENE -- -- 0.02 in0.5 mm 0.00 in0.0 mm 0.02 in0.5 mm
01:48 PM 34.5°F1.4°C 34.0°F1.1°C 98% 6.3 mph ENE10.1 kmh ENE -- -- 0.02 in0.5 mm 0.00 in0.0 mm 0.02 in0.5 mm
01:50 PM 34.5°F1.4°C 34.0°F1.1°C 98% 5.8 mph E9.3 kmh E 8.9 mph14.3 kmh -- 0.02 in0.5 mm 0.00 in0.0 mm 0.02 in0.5 mm
01:51 PM 34.5°F1.4°C 34.0°F1.1°C 98% 6.1 mph ENE9.8 kmh ENE -- -- 0.02 in0.5 mm 0.00 in0.0 mm 0.02 in0.5 mm
01:52 PM 34.5°F1.4°C 34.0°F1.1°C 98% 6.9 mph ENE11.1 kmh ENE -- -- 0.02 in0.5 mm 0.00 in0.0 mm 0.02 in0.5 mm
01:53 PM 34.5°F1.4°C 34.0°F1.1°C 98% 7.9 mph E12.7 kmh E -- -- 0.02 in0.5 mm 0.00 in0.0 mm 0.02 in0.5 mm
01:54 PM 34.5°F1.4°C 34.0°F1.1°C 98% 8.2 mph E13.2 kmh E -- -- 0.00 in0.0 mm 0.00 in0.0 mm 0.02 in0.5 mm
01:56 PM 34.5°F1.4°C 34.0°F1.1°C 98% 7.5 mph ESE12.1 kmh ESE -- -- 0.00 in0.0 mm 0.00 in0.0 mm 0.02 in0.5 mm
01:57 PM 34.7°F1.5°C 34.2°F1.2°C 98% 6.3 mph E10.1 kmh E -- -- 0.00 in0.0 mm 0.00 in0.0 mm 0.02 in0.5 mm
01:58 PM 34.7°F1.5°C 34.2°F1.2°C 98% 7.1 mph E11.4 kmh E -- -- 0.00 in0.0 mm 0.00 in0.0 mm 0.02 in0.5 mm
01:59 PM 34.7°F1.5°C 34.2°F1.2°C 98% 8.3 mph ESE13.4 kmh ESE -- -- 0.00 in0.0 mm 0.00 in0.0 mm 0.02 in0.5 mm
02:01 PM 34.7°F1.5°C 34.2°F1.2°C 98% 8.0 mph E12.9 kmh E -- -- 0.00 in0.0 mm 0.00 in0.0 mm 0.02 in0.5 mm
02:02 PM 34.7°F1.5°C 34.2°F1.2°C 98% 7.7 mph ESE12.4 kmh ESE -- -- 0.00 in0.0 mm 0.00 in0.0 mm 0.02 in0.5 mm
02:03 PM 34.7°F1.5°C 34.2°F1.2°C 98% 7.1 mph ENE11.4 kmh ENE -- -- 0.00 in0.0 mm 0.00 in0.0 mm 0.02 in0.5 mm
02:04 PM 34.7°F1.5°C 34.2°F1.2°C 98% 6.9 mph ESE11.1 kmh ESE -- -- 0.00 in0.0 mm 0.00 in0.0 mm 0.02 in0.5 mm
02:06 PM 34.7°F1.5°C 34.2°F1.2°C 98% 6.9 mph E11.1 kmh E -- -- 0.00 in0.0 mm 0.00 in0.0 mm 0.02 in0.5 mm
02:07 PM 34.7°F1.5°C 34.2°F1.2°C 98% 6.6 mph E10.6 kmh E 10.4 mph16.7 kmh -- 0.00 in0.0 mm 0.00 in0.0 mm 0.02 in0.5 mm
02:08 PM 34.7°F1.5°C 34.2°F1.2°C 98% 8.1 mph ENE13.0 kmh ENE -- -- 0.00 in0.0 mm 0.00 in0.0 mm 0.02 in0.5 mm
02:09 PM 34.7°F1.5°C 34.2°F1.2°C 98% 8.3 mph ENE13.4 kmh ENE -- -- 0.00 in0.0 mm 0.00 in0.0 mm 0.02 in0.5 mm
02:11 PM 34.7°F1.5°C 34.2°F1.2°C 98% 8.0 mph E12.9 kmh E -- -- 0.00 in0.0 mm 0.00 in0.0 mm 0.02 in0.5 mm
02:12 PM 34.9°F1.6°C 34.4°F1.3°C 98% 8.0 mph ENE12.9 kmh ENE -- -- 0.00 in0.0 mm 0.00 in0.0 mm 0.02 in0.5 mm
02:13 PM 34.9°F1.6°C 34.4°F1.3°C 98% 8.6 mph NE13.8 kmh NE -- -- 0.00 in0.0 mm 0.00 in0.0 mm 0.02 in0.5 mm
02:14 PM 34.9°F1.6°C 34.4°F1.3°C 98% 8.9 mph E14.3 kmh E -- -- 0.00 in0.0 mm 0.00 in0.0 mm 0.02 in0.5 mm
02:15 PM 34.9°F1.6°C 34.4°F1.3°C 98% 8.0 mph ESE12.9 kmh ESE -- -- 0.00 in0.0 mm 0.00 in0.0 mm 0.02 in0.5 mm
02:17 PM 35.1°F1.7°C 34.6°F1.4°C 98% 7.1 mph E11.4 kmh E -- -- 0.00 in0.0 mm 0.00 in0.0 mm 0.02 in0.5 mm
02:18 PM 35.1°F1.7°C 34.6°F1.4°C 98% 7.2 mph ENE11.6 kmh ENE -- -- 0.00 in0.0 mm 0.00 in0.0 mm 0.02 in0.5 mm
02:19 PM 35.1°F1.7°C 34.6°F1.4°C 98% 8.6 mph ENE13.8 kmh ENE -- -- 0.00 in0.0 mm 0.00 in0.0 mm 0.02 in0.5 mm
02:20 PM 35.1°F1.7°C 34.6°F1.4°C 98% 8.7 mph E14.0 kmh E -- -- 0.00 in0.0 mm 0.00 in0.0 mm 0.02 in0.5 mm
02:27 PM 35.1°F1.7°C 34.6°F1.4°C 98% 8.5 mph E13.7 kmh E -- -- 0.00 in0.0 mm 0.00 in0.0 mm 0.02 in0.5 mm
02:28 PM 35.6°F2.0°C 34.8°F1.6°C 97% 6.6 mph ENE10.6 kmh ENE -- -- 0.00 in0.0 mm 0.00 in0.0 mm 0.02 in0.5 mm
02:29 PM 35.6°F2.0°C 34.8°F1.6°C 97% 5.7 mph E9.2 kmh E 7.8 mph12.6 kmh -- 0.00 in0.0 mm 0.00 in0.0 mm 0.02 in0.5 mm
02:31 PM 35.6°F2.0°C 34.8°F1.6°C 97% 6.1 mph E9.8 kmh E -- -- 0.00 in0.0 mm 0.00 in0.0 mm 0.02 in0.5 mm
02:32 PM 35.6°F2.0°C 34.8°F1.6°C 97% 6.7 mph E10.8 kmh E -- -- 0.00 in0.0 mm 0.00 in0.0 mm 0.02 in0.5 mm
02:33 PM 35.6°F2.0°C 34.8°F1.6°C 97% 8.0 mph E12.9 kmh E -- -- 0.00 in0.0 mm 0.00 in0.0 mm 0.02 in0.5 mm
02:34 PM 35.6°F2.0°C 34.8°F1.6°C 97% 7.8 mph ESE12.6 kmh ESE -- -- 0.00 in0.0 mm 0.00 in0.0 mm 0.02 in0.5 mm
02:35 PM 35.6°F2.0°C 34.8°F1.6°C 97% 8.0 mph E12.9 kmh E -- -- 0.33 in8.4 mm 19.80 in502.9 mm 0.02 in0.5 mm
02:36 PM 35.6°F2.0°C 34.8°F1.6°C 97% 8.6 mph ENE13.8 kmh ENE -- -- 0.33 in8.4 mm 0.00 in0.0 mm 0.02 in0.5 mm
02:38 PM 35.6°F2.0°C 34.8°F1.6°C 97% 8.3 mph E13.4 kmh E -- -- 0.33 in8.4 mm 0.00 in0.0 mm 0.02 in0.5 mm
02:39 PM 35.6°F2.0°C 34.8°F1.6°C 97% 7.0 mph ESE11.3 kmh ESE -- -- 0.33 in8.4 mm 0.00 in0.0 mm 0.02 in0.5 mm
02:40 PM 35.6°F2.0°C 34.8°F1.6°C 97% 7.1 mph ENE11.4 kmh ENE -- -- 0.33 in8.4 mm 0.00 in0.0 mm 0.02 in0.5 mm
02:41 PM 35.6°F2.0°C 34.8°F1.6°C 97% 8.0 mph ENE12.9 kmh ENE -- -- 0.33 in8.4 mm 0.00 in0.0 mm 0.02 in0.5 mm
02:43 PM 35.6°F2.0°C 34.8°F1.6°C 97% 7.1 mph E11.4 kmh E -- -- 0.33 in8.4 mm 0.00 in0.0 mm 0.02 in0.5 mm
02:44 PM 35.6°F2.0°C 34.8°F1.6°C 97% 7.5 mph ENE12.1 kmh ENE -- -- 0.33 in8.4 mm 0.00 in0.0 mm 0.02 in0.5 mm
02:45 PM 35.6°F2.0°C 34.8°F1.6°C 97% 8.1 mph E13.0 kmh E -- -- 0.33 in8.4 mm 0.00 in0.0 mm 0.02 in0.5 mm
02:46 PM 35.6°F2.0°C 34.8°F1.6°C 97% 8.1 mph ENE13.0 kmh ENE -- -- 0.33 in8.4 mm 0.00 in0.0 mm 0.02 in0.5 mm
02:48 PM 35.4°F1.9°C 34.6°F1.4°C 97% 8.6 mph ENE13.8 kmh ENE -- -- 0.33 in8.4 mm 0.00 in0.0 mm 0.02 in0.5 mm
02:49 PM 35.4°F1.9°C 34.6°F1.4°C 97% 9.2 mph ESE14.8 kmh ESE -- -- 0.33 in8.4 mm 0.00 in0.0 mm 0.02 in0.5 mm
02:50 PM 35.4°F1.9°C 34.6°F1.4°C 97% 8.9 mph ENE14.3 kmh ENE -- -- 0.33 in8.4 mm 0.00 in0.0 mm 0.02 in0.5 mm
02:51 PM 35.4°F1.9°C 34.6°F1.4°C 97% 8.5 mph ENE13.7 kmh ENE -- -- 0.33 in8.4 mm 0.00 in0.0 mm 0.02 in0.5 mm
02:52 PM 35.4°F1.9°C 34.6°F1.4°C 97% 8.3 mph E13.4 kmh E -- -- 0.33 in8.4 mm 0.00 in0.0 mm 0.02 in0.5 mm
02:54 PM 35.4°F1.9°C 34.6°F1.4°C 97% 8.6 mph ENE13.8 kmh ENE -- -- 0.33 in8.4 mm 0.00 in0.0 mm 0.02 in0.5 mm
02:55 PM 35.4°F1.9°C 34.6°F1.4°C 97% 8.6 mph E13.8 kmh E -- -- 0.33 in8.4 mm 0.00 in0.0 mm 0.02 in0.5 mm
02:56 PM 35.4°F1.9°C 34.6°F1.4°C 97% 8.3 mph ENE13.4 kmh ENE -- -- 0.33 in8.4 mm 0.00 in0.0 mm 0.02 in0.5 mm
02:57 PM 35.4°F1.9°C 34.6°F1.4°C 97% 8.3 mph E13.4 kmh E -- -- 0.33 in8.4 mm 0.00 in0.0 mm 0.02 in0.5 mm
02:59 PM 35.4°F1.9°C 34.6°F1.4°C 97% 8.7 mph E14.0 kmh E -- -- 0.33 in8.4 mm 0.00 in0.0 mm 0.02 in0.5 mm
03:00 PM 35.4°F1.9°C 34.6°F1.4°C 97% 7.9 mph E12.7 kmh E -- -- 0.33 in8.4 mm 0.00 in0.0 mm 0.02 in0.5 mm
03:01 PM 35.4°F1.9°C 34.6°F1.4°C 97% 9.0 mph E14.5 kmh E -- -- 0.33 in8.4 mm 0.00 in0.0 mm 0.02 in0.5 mm
03:02 PM 35.4°F1.9°C 34.6°F1.4°C 97% 8.8 mph ESE14.2 kmh ESE -- -- 0.33 in8.4 mm 0.00 in0.0 mm 0.02 in0.5 mm
03:04 PM 35.4°F1.9°C 34.6°F1.4°C 97% 7.5 mph ENE12.1 kmh ENE -- -- 0.33 in8.4 mm 0.00 in0.0 mm 0.02 in0.5 mm
03:05 PM 35.4°F1.9°C 34.6°F1.4°C 97% 7.5 mph E12.1 kmh E -- -- 0.33 in8.4 mm 0.00 in0.0 mm 0.02 in0.5 mm
03:06 PM 35.4°F1.9°C 34.6°F1.4°C 97% 7.1 mph E11.4 kmh E 10.4 mph16.7 kmh -- 0.33 in8.4 mm 0.00 in0.0 mm 0.02 in0.5 mm
03:08 PM 35.4°F1.9°C 34.6°F1.4°C 97% 6.6 mph E10.6 kmh E -- -- 0.33 in8.4 mm 0.00 in0.0 mm 0.02 in0.5 mm
03:09 PM 35.4°F1.9°C 34.6°F1.4°C 97% 6.7 mph E10.8 kmh E -- -- 0.33 in8.4 mm 0.00 in0.0 mm 0.02 in0.5 mm
03:10 PM 35.4°F1.9°C 34.6°F1.4°C 97% 8.1 mph ESE13.0 kmh ESE -- -- 0.33 in8.4 mm 0.00 in0.0 mm 0.02 in0.5 mm
03:11 PM 35.4°F1.9°C 34.6°F1.4°C 97% 8.4 mph ESE13.5 kmh ESE -- -- 0.33 in8.4 mm 0.00 in0.0 mm 0.02 in0.5 mm
03:13 PM 35.4°F1.9°C 34.6°F1.4°C 97% 8.0 mph ENE12.9 kmh ENE -- -- 0.33 in8.4 mm 0.00 in0.0 mm 0.02 in0.5 mm
03:14 PM 35.4°F1.9°C 34.6°F1.4°C 97% 7.7 mph E12.4 kmh E -- -- 0.33 in8.4 mm 0.00 in0.0 mm 0.02 in0.5 mm
03:15 PM 35.4°F1.9°C 34.6°F1.4°C 97% 7.7 mph ENE12.4 kmh ENE -- -- 0.33 in8.4 mm 0.00 in0.0 mm 0.02 in0.5 mm
03:16 PM 35.4°F1.9°C 34.6°F1.4°C 97% 7.5 mph ENE12.1 kmh ENE -- -- 0.33 in8.4 mm 0.00 in0.0 mm 0.02 in0.5 mm
03:17 PM 35.4°F1.9°C 34.6°F1.4°C 97% 8.3 mph E13.4 kmh E -- -- 0.33 in8.4 mm 0.00 in0.0 mm 0.02 in0.5 mm
03:19 PM 35.4°F1.9°C 34.6°F1.4°C 97% 7.9 mph ENE12.7 kmh ENE -- -- 0.33 in8.4 mm 0.00 in0.0 mm 0.02 in0.5 mm
03:20 PM 35.4°F1.9°C 34.6°F1.4°C 97% 7.1 mph E11.4 kmh E -- -- 0.33 in8.4 mm 0.00 in0.0 mm 0.02 in0.5 mm
03:21 PM 35.4°F1.9°C 34.6°F1.4°C 97% 7.7 mph E12.4 kmh E -- -- 0.33 in8.4 mm 0.00 in0.0 mm 0.02 in0.5 mm
03:22 PM 35.4°F1.9°C 34.6°F1.4°C 97% 7.3 mph E11.7 kmh E -- -- 0.33 in8.4 mm 0.00 in0.0 mm 0.02 in0.5 mm
03:24 PM 35.4°F1.9°C 34.6°F1.4°C 97% 7.5 mph ESE12.1 kmh ESE -- -- 0.33 in8.4 mm 0.00 in0.0 mm 0.02 in0.5 mm
03:25 PM 35.4°F1.9°C 34.6°F1.4°C 97% 7.2 mph E11.6 kmh E -- -- 0.33 in8.4 mm 0.00 in0.0 mm 0.02 in0.5 mm
03:26 PM 35.4°F1.9°C 34.6°F1.4°C 97% 7.8 mph E12.6 kmh E -- -- 0.33 in8.4 mm 0.00 in0.0 mm 0.02 in0.5 mm
03:27 PM 35.4°F1.9°C 34.6°F1.4°C 97% 8.7 mph E14.0 kmh E -- -- 0.33 in8.4 mm 0.00 in0.0 mm 0.02 in0.5 mm
03:29 PM 35.4°F1.9°C 34.6°F1.4°C 97% 9.7 mph E15.6 kmh E -- -- 0.33 in8.4 mm 0.00 in0.0 mm 0.02 in0.5 mm
03:30 PM 35.4°F1.9°C 34.6°F1.4°C 97% 10.0 mph ESE16.1 kmh ESE -- -- 0.33 in8.4 mm 0.00 in0.0 mm 0.02 in0.5 mm
03:31 PM 35.4°F1.9°C 34.6°F1.4°C 97% 9.3 mph ENE15.0 kmh ENE -- -- 0.33 in8.4 mm 0.00 in0.0 mm 0.02 in0.5 mm
03:32 PM 35.4°F1.9°C 34.6°F1.4°C 97% 9.4 mph E15.1 kmh E -- -- 0.33 in8.4 mm 0.00 in0.0 mm 0.02 in0.5 mm
03:34 PM 35.4°F1.9°C 34.6°F1.4°C 97% 8.4 mph E13.5 kmh E -- -- 0.33 in8.4 mm 0.00 in0.0 mm 0.02 in0.5 mm
03:35 PM 35.4°F1.9°C 34.6°F1.4°C 97% 8.6 mph ESE13.8 kmh ESE -- -- 0.00 in0.0 mm 0.00 in0.0 mm 0.02 in0.5 mm
03:36 PM 35.4°F1.9°C 34.6°F1.4°C 97% 8.0 mph E12.9 kmh E -- -- 0.00 in0.0 mm 0.00 in0.0 mm 0.02 in0.5 mm
03:37 PM 35.4°F1.9°C 34.6°F1.4°C 97% 6.9 mph E11.1 kmh E -- -- 0.00 in0.0 mm 0.00 in0.0 mm 0.02 in0.5 mm
03:38 PM 35.4°F1.9°C 34.6°F1.4°C 97% 6.7 mph E10.8 kmh E -- -- 0.00 in0.0 mm 0.00 in0.0 mm 0.02 in0.5 mm
03:40 PM 35.4°F1.9°C 34.6°F1.4°C 97% 7.1 mph SE11.4 kmh SE -- -- 0.00 in0.0 mm 0.00 in0.0 mm 0.02 in0.5 mm
03:41 PM 35.4°F1.9°C 34.6°F1.4°C 97% 6.9 mph E11.1 kmh E -- -- 0.00 in0.0 mm 0.00 in0.0 mm 0.02 in0.5 mm
03:42 PM 35.4°F1.9°C 34.6°F1.4°C 97% 6.6 mph ENE10.6 kmh ENE -- -- 0.00 in0.0 mm 0.00 in0.0 mm 0.02 in0.5 mm
03:43 PM 35.4°F1.9°C 34.6°F1.4°C 97% 6.6 mph ENE10.6 kmh ENE -- -- 0.00 in0.0 mm 0.00 in0.0 mm 0.02 in0.5 mm
03:45 PM 35.4°F1.9°C 34.6°F1.4°C 97% 6.5 mph ESE10.5 kmh ESE -- -- 0.00 in0.0 mm 0.00 in0.0 mm 0.02 in0.5 mm
03:46 PM 35.4°F1.9°C 34.6°F1.4°C 97% 6.8 mph NE10.9 kmh NE -- -- 0.00 in0.0 mm 0.00 in0.0 mm 0.02 in0.5 mm
03:53 PM 35.4°F1.9°C 34.6°F1.4°C 97% 7.5 mph E12.1 kmh E 10.9 mph17.5 kmh -- 0.00 in0.0 mm 0.00 in0.0 mm 0.02 in0.5 mm
03:54 PM 35.4°F1.9°C 34.6°F1.4°C 97% 8.3 mph E13.4 kmh E -- -- 0.00 in0.0 mm 0.00 in0.0 mm 0.02 in0.5 mm
03:55 PM 35.4°F1.9°C 34.6°F1.4°C 97% 7.7 mph ESE12.4 kmh ESE 11.4 mph18.3 kmh -- 0.00 in0.0 mm 0.00 in0.0 mm 0.02 in0.5 mm
03:56 PM 35.4°F1.9°C 34.6°F1.4°C 97% 8.5 mph ESE13.7 kmh ESE -- -- 0.00 in0.0 mm 0.00 in0.0 mm 0.02 in0.5 mm
03:58 PM 35.4°F1.9°C 34.6°F1.4°C 97% 8.3 mph E13.4 kmh E -- -- 0.00 in0.0 mm 0.00 in0.0 mm 0.02 in0.5 mm
03:59 PM 35.4°F1.9°C 34.6°F1.4°C 97% 8.1 mph E13.0 kmh E -- -- 0.00 in0.0 mm 0.00 in0.0 mm 0.02 in0.5 mm
04:00 PM 35.6°F2.0°C 34.8°F1.6°C 97% 8.3 mph E13.4 kmh E -- -- 0.00 in0.0 mm 0.00 in0.0 mm 0.02 in0.5 mm
04:02 PM 35.6°F2.0°C 34.8°F1.6°C 97% 8.5 mph E13.7 kmh E -- -- 0.00 in0.0 mm 0.00 in0.0 mm 0.02 in0.5 mm
04:03 PM 35.6°F2.0°C 34.8°F1.6°C 97% 8.0 mph E12.9 kmh E -- -- 0.00 in0.0 mm 0.00 in0.0 mm 0.02 in0.5 mm
04:04 PM 35.6°F2.0°C 34.8°F1.6°C 97% 7.6 mph ENE12.2 kmh ENE -- -- 0.00 in0.0 mm 0.00 in0.0 mm 0.02 in0.5 mm
04:05 PM 35.6°F2.0°C 34.8°F1.6°C 97% 8.6 mph ENE13.8 kmh ENE -- -- 0.00 in0.0 mm 0.00 in0.0 mm 0.02 in0.5 mm
04:07 PM 35.6°F2.0°C 34.8°F1.6°C 97% 9.1 mph E14.6 kmh E -- -- 0.00 in0.0 mm 0.00 in0.0 mm 0.02 in0.5 mm
04:08 PM 35.6°F2.0°C 34.8°F1.6°C 97% 8.4 mph ENE13.5 kmh ENE -- -- 0.00 in0.0 mm 0.00 in0.0 mm 0.02 in0.5 mm
04:09 PM 35.6°F2.0°C 34.8°F1.6°C 97% 6.9 mph E11.1 kmh E -- -- 0.00 in0.0 mm 0.00 in0.0 mm 0.02 in0.5 mm
04:10 PM 35.6°F2.0°C 34.8°F1.6°C 97% 6.3 mph E10.1 kmh E 7.8 mph12.6 kmh -- 0.00 in0.0 mm 0.00 in0.0 mm 0.02 in0.5 mm
04:11 PM 35.6°F2.0°C 34.8°F1.6°C 97% 7.7 mph ENE12.4 kmh ENE -- -- 0.00 in0.0 mm 0.00 in0.0 mm 0.02 in0.5 mm
04:12 PM 35.6°F2.0°C 34.8°F1.6°C 97% 9.1 mph E14.6 kmh E -- -- 0.00 in0.0 mm 0.00 in0.0 mm 0.02 in0.5 mm
04:14 PM 35.6°F2.0°C 34.8°F1.6°C 97% 8.9 mph ESE14.3 kmh ESE -- -- 0.00 in0.0 mm 0.00 in0.0 mm 0.02 in0.5 mm
04:15 PM 35.6°F2.0°C 34.8°F1.6°C 97% 8.0 mph E12.9 kmh E -- -- 0.00 in0.0 mm 0.00 in0.0 mm 0.02 in0.5 mm
04:16 PM 35.6°F2.0°C 34.8°F1.6°C 97% 8.4 mph E13.5 kmh E -- -- 0.00 in0.0 mm 0.00 in0.0 mm 0.02 in0.5 mm
04:17 PM 35.6°F2.0°C 34.8°F1.6°C 97% 9.7 mph E15.6 kmh E -- -- 0.00 in0.0 mm 0.00 in0.0 mm 0.02 in0.5 mm
04:19 PM 35.6°F2.0°C 34.8°F1.6°C 97% 9.2 mph E14.8 kmh E -- -- 0.00 in0.0 mm 0.00 in0.0 mm 0.02 in0.5 mm
04:20 PM 35.6°F2.0°C 34.8°F1.6°C 97% 8.9 mph E14.3 kmh E -- -- 0.00 in0.0 mm 0.00 in0.0 mm 0.02 in0.5 mm
04:21 PM 35.6°F2.0°C 34.8°F1.6°C 97% 9.4 mph E15.1 kmh E -- -- 0.00 in0.0 mm 0.00 in0.0 mm 0.02 in0.5 mm
04:23 PM 35.6°F2.0°C 34.8°F1.6°C 97% 8.6 mph ENE13.8 kmh ENE -- -- 0.00 in0.0 mm 0.00 in0.0 mm 0.02 in0.5 mm
04:24 PM 35.6°F2.0°C 34.8°F1.6°C 97% 7.4 mph E11.9 kmh E -- -- 0.00 in0.0 mm 0.00 in0.0 mm 0.02 in0.5 mm
04:25 PM 35.6°F2.0°C 34.8°F1.6°C 97% 8.2 mph E13.2 kmh E -- -- 0.00 in0.0 mm 0.00 in0.0 mm 0.02 in0.5 mm
04:26 PM 35.6°F2.0°C 34.8°F1.6°C 97% 8.5 mph E13.7 kmh E -- -- 0.00 in0.0 mm 0.00 in0.0 mm 0.02 in0.5 mm
04:34 PM 35.6°F2.0°C 34.8°F1.6°C 97% 7.9 mph ENE12.7 kmh ENE -- -- 0.00 in0.0 mm 0.00 in0.0 mm 0.02 in0.5 mm
04:36 PM 35.8°F2.1°C 35.0°F1.7°C 97% 10.2 mph NNE16.4 kmh NNE -- -- 0.00 in0.0 mm 0.00 in0.0 mm 0.02 in0.5 mm
04:37 PM 35.8°F2.1°C 35.0°F1.7°C 97% 9.2 mph ENE14.8 kmh ENE -- -- 0.00 in0.0 mm 0.00 in0.0 mm 0.02 in0.5 mm
04:38 PM 35.8°F2.1°C 35.0°F1.7°C 97% 9.1 mph NE14.6 kmh NE -- -- 0.00 in0.0 mm 0.00 in0.0 mm 0.02 in0.5 mm
04:39 PM 35.8°F2.1°C 35.0°F1.7°C 97% 9.1 mph ENE14.6 kmh ENE -- -- 0.00 in0.0 mm 0.00 in0.0 mm 0.02 in0.5 mm
04:40 PM 35.8°F2.1°C 35.0°F1.7°C 97% 9.4 mph E15.1 kmh E -- -- 0.00 in0.0 mm 0.00 in0.0 mm 0.02 in0.5 mm
04:42 PM 35.6°F2.0°C 34.8°F1.6°C 97% 8.1 mph ENE13.0 kmh ENE -- -- 0.00 in0.0 mm 0.00 in0.0 mm 0.02 in0.5 mm
04:43 PM 35.6°F2.0°C 34.8°F1.6°C 97% 8.4 mph E13.5 kmh E -- -- 0.00 in0.0 mm 0.00 in0.0 mm 0.02 in0.5 mm
04:44 PM 35.6°F2.0°C 34.8°F1.6°C 97% 8.6 mph E13.8 kmh E -- -- 0.00 in0.0 mm 0.00 in0.0 mm 0.02 in0.5 mm
04:45 PM 35.6°F2.0°C 35.1°F1.7°C 98% 7.9 mph ENE12.7 kmh ENE -- -- 0.00 in0.0 mm 0.00 in0.0 mm 0.02 in0.5 mm
04:47 PM 35.4°F1.9°C 34.9°F1.6°C 98% 9.5 mph E15.3 kmh E -- -- 0.00 in0.0 mm 0.00 in0.0 mm 0.02 in0.5 mm
04:48 PM 35.4°F1.9°C 34.9°F1.6°C 98% 9.4 mph E15.1 kmh E -- -- 0.00 in0.0 mm 0.00 in0.0 mm 0.02 in0.5 mm
04:49 PM 35.4°F1.9°C 34.9°F1.6°C 98% 8.1 mph E13.0 kmh E -- -- 0.00 in0.0 mm 0.00 in0.0 mm 0.02 in0.5 mm
04:50 PM 35.4°F1.9°C 34.9°F1.6°C 98% 7.9 mph ENE12.7 kmh ENE -- -- 0.00 in0.0 mm 0.00 in0.0 mm 0.02 in0.5 mm
04:52 PM 35.4°F1.9°C 34.9°F1.6°C 98% 8.8 mph E14.2 kmh E -- -- 0.00 in0.0 mm 0.00 in0.0 mm 0.02 in0.5 mm
04:53 PM 35.4°F1.9°C 34.9°F1.6°C 98% 7.8 mph E12.6 kmh E -- -- 0.00 in0.0 mm 0.00 in0.0 mm 0.02 in0.5 mm
04:54 PM 35.4°F1.9°C 34.9°F1.6°C 98% 8.4 mph ESE13.5 kmh ESE -- -- 0.00 in0.0 mm 0.00 in0.0 mm 0.02 in0.5 mm
04:55 PM 35.4°F1.9°C 34.9°F1.6°C 98% 8.7 mph ENE14.0 kmh ENE -- -- 0.00 in0.0 mm 0.00 in0.0 mm 0.02 in0.5 mm
04:56 PM 35.4°F1.9°C 34.9°F1.6°C 98% 7.8 mph ENE12.6 kmh ENE -- -- 0.00 in0.0 mm 0.00 in0.0 mm 0.02 in0.5 mm
04:58 PM 35.4°F1.9°C 34.9°F1.6°C 98% 7.5 mph E12.1 kmh E -- -- 0.00 in0.0 mm 0.00 in0.0 mm 0.02 in0.5 mm
04:59 PM 35.4°F1.9°C 34.9°F1.6°C 98% 8.1 mph ENE13.0 kmh ENE 10.9 mph17.5 kmh -- 0.00 in0.0 mm 0.00 in0.0 mm 0.02 in0.5 mm
05:00 PM 35.4°F1.9°C 34.9°F1.6°C 98% 8.2 mph E13.2 kmh E -- -- 0.00 in0.0 mm 0.00 in0.0 mm 0.02 in0.5 mm
05:01 PM 35.4°F1.9°C 34.9°F1.6°C 98% 7.7 mph E12.4 kmh E -- -- 0.00 in0.0 mm 0.00 in0.0 mm 0.02 in0.5 mm
05:03 PM 35.4°F1.9°C 34.9°F1.6°C 98% 7.3 mph ENE11.7 kmh ENE -- -- 0.00 in0.0 mm 0.00 in0.0 mm 0.02 in0.5 mm
05:04 PM 35.4°F1.9°C 34.9°F1.6°C 98% 8.6 mph ENE13.8 kmh ENE -- -- 0.00 in0.0 mm 0.00 in0.0 mm 0.02 in0.5 mm
05:05 PM 35.4°F1.9°C 34.9°F1.6°C 98% 8.7 mph E14.0 kmh E -- -- 0.00 in0.0 mm 0.00 in0.0 mm 0.02 in0.5 mm
05:06 PM 35.4°F1.9°C 34.9°F1.6°C 98% 9.4 mph ENE15.1 kmh ENE -- -- 0.00 in0.0 mm 0.00 in0.0 mm 0.02 in0.5 mm
05:08 PM 35.4°F1.9°C 34.9°F1.6°C 98% 9.4 mph E15.1 kmh E -- -- 0.00 in0.0 mm 0.00 in0.0 mm 0.02 in0.5 mm
05:09 PM 35.4°F1.9°C 34.9°F1.6°C 98% 7.8 mph ENE12.6 kmh ENE -- -- 0.00 in0.0 mm 0.00 in0.0 mm 0.02 in0.5 mm
05:10 PM 35.4°F1.9°C 34.9°F1.6°C 98% 7.7 mph E12.4 kmh E 11.4 mph18.3 kmh -- 0.00 in0.0 mm 0.00 in0.0 mm 0.02 in0.5 mm
05:11 PM 35.4°F1.9°C 34.9°F1.6°C 98% 8.3 mph E13.4 kmh E -- -- 0.00 in0.0 mm 0.00 in0.0 mm 0.02 in0.5 mm
05:13 PM 35.4°F1.9°C 34.9°F1.6°C 98% 7.7 mph NE12.4 kmh NE -- -- 0.00 in0.0 mm 0.00 in0.0 mm 0.02 in0.5 mm
05:14 PM 35.4°F1.9°C 34.9°F1.6°C 98% 8.5 mph ENE13.7 kmh ENE -- -- 0.00 in0.0 mm 0.00 in0.0 mm 0.02 in0.5 mm
05:15 PM 35.4°F1.9°C 34.9°F1.6°C 98% 9.0 mph NE14.5 kmh NE -- -- 0.00 in0.0 mm 0.00 in0.0 mm 0.02 in0.5 mm
05:16 PM 35.4°F1.9°C 34.9°F1.6°C 98% 7.7 mph ENE12.4 kmh ENE -- -- 0.00 in0.0 mm 0.00 in0.0 mm 0.02 in0.5 mm
05:17 PM 35.4°F1.9°C 34.9°F1.6°C 98% 7.5 mph ENE12.1 kmh ENE -- -- 0.00 in0.0 mm 0.00 in0.0 mm 0.02 in0.5 mm
05:19 PM 35.4°F1.9°C 34.9°F1.6°C 98% 8.6 mph NE13.8 kmh NE -- -- 0.00 in0.0 mm 0.00 in0.0 mm 0.02 in0.5 mm
05:20 PM 35.4°F1.9°C 34.9°F1.6°C 98% 8.3 mph ENE13.4 kmh ENE 10.4 mph16.7 kmh -- 0.00 in0.0 mm 0.00 in0.0 mm 0.02 in0.5 mm
05:21 PM 35.4°F1.9°C 34.9°F1.6°C 98% 8.5 mph ENE13.7 kmh ENE -- -- 0.00 in0.0 mm 0.00 in0.0 mm 0.02 in0.5 mm
05:22 PM 35.4°F1.9°C 34.9°F1.6°C 98% 9.1 mph E14.6 kmh E -- -- 0.00 in0.0 mm 0.00 in0.0 mm 0.02 in0.5 mm
05:24 PM 35.4°F1.9°C 34.9°F1.6°C 98% 8.3 mph E13.4 kmh E -- -- 0.00 in0.0 mm 0.00 in0.0 mm 0.02 in0.5 mm
05:25 PM 35.4°F1.9°C 34.9°F1.6°C 98% 7.8 mph ENE12.6 kmh ENE -- -- 0.00 in0.0 mm 0.00 in0.0 mm 0.02 in0.5 mm
05:26 PM 35.4°F1.9°C 34.9°F1.6°C 98% 7.0 mph E11.3 kmh E -- -- 0.00 in0.0 mm 0.00 in0.0 mm 0.02 in0.5 mm
05:27 PM 35.4°F1.9°C 34.9°F1.6°C 98% 6.6 mph ENE10.6 kmh ENE -- -- 0.00 in0.0 mm 0.00 in0.0 mm 0.02 in0.5 mm
05:29 PM 35.4°F1.9°C 34.9°F1.6°C 98% 7.1 mph E11.4 kmh E 9.4 mph15.1 kmh -- 0.00 in0.0 mm 0.00 in0.0 mm 0.02 in0.5 mm
05:31 PM 35.4°F1.9°C 34.9°F1.6°C 98% 6.9 mph ENE11.1 kmh ENE -- -- 0.00 in0.0 mm 0.00 in0.0 mm 0.02 in0.5 mm
05:32 PM 35.4°F1.9°C 34.9°F1.6°C 98% 7.5 mph ENE12.1 kmh ENE -- -- 0.00 in0.0 mm 0.00 in0.0 mm 0.02 in0.5 mm
05:34 PM 35.4°F1.9°C 34.9°F1.6°C 98% 7.7 mph NE12.4 kmh NE -- -- 0.00 in0.0 mm 0.00 in0.0 mm 0.02 in0.5 mm
05:35 PM 35.4°F1.9°C 34.9°F1.6°C 98% 7.5 mph NE12.1 kmh NE -- -- 0.00 in0.0 mm 0.00 in0.0 mm 0.02 in0.5 mm
05:36 PM 35.4°F1.9°C 34.9°F1.6°C 98% 8.0 mph NE12.9 kmh NE -- -- 0.00 in0.0 mm 0.00 in0.0 mm 0.02 in0.5 mm
05:37 PM 35.4°F1.9°C 34.9°F1.6°C 98% 7.9 mph E12.7 kmh E -- -- 0.00 in0.0 mm 0.00 in0.0 mm 0.02 in0.5 mm
05:38 PM 35.4°F1.9°C 34.9°F1.6°C 98% 8.6 mph ENE13.8 kmh ENE -- -- 0.00 in0.0 mm 0.00 in0.0 mm 0.02 in0.5 mm
05:40 PM 35.4°F1.9°C 34.9°F1.6°C 98% 7.5 mph ENE12.1 kmh ENE -- -- 0.00 in0.0 mm 0.00 in0.0 mm 0.02 in0.5 mm
05:41 PM 35.4°F1.9°C 34.9°F1.6°C 98% 6.6 mph E10.6 kmh E -- -- 0.00 in0.0 mm 0.00 in0.0 mm 0.02 in0.5 mm
05:42 PM 35.4°F1.9°C 34.9°F1.6°C 98% 7.5 mph NE12.1 kmh NE -- -- 0.00 in0.0 mm 0.00 in0.0 mm 0.02 in0.5 mm
05:43 PM 35.4°F1.9°C 34.9°F1.6°C 98% 8.3 mph ENE13.4 kmh ENE -- -- 0.00 in0.0 mm 0.00 in0.0 mm 0.02 in0.5 mm
05:45 PM 35.4°F1.9°C 34.9°F1.6°C 98% 8.5 mph ENE13.7 kmh ENE -- -- 0.00 in0.0 mm 0.00 in0.0 mm 0.02 in0.5 mm
05:46 PM 35.4°F1.9°C 34.9°F1.6°C 98% 7.2 mph ENE11.6 kmh ENE -- -- 0.00 in0.0 mm 0.00 in0.0 mm 0.02 in0.5 mm
05:47 PM 35.4°F1.9°C 34.9°F1.6°C 98% 8.3 mph NE13.4 kmh NE -- -- 0.00 in0.0 mm 0.00 in0.0 mm 0.02 in0.5 mm
05:48 PM 35.4°F1.9°C 34.9°F1.6°C 98% 7.5 mph ENE12.1 kmh ENE -- -- 0.00 in0.0 mm 0.00 in0.0 mm 0.02 in0.5 mm
05:50 PM 35.4°F1.9°C 34.9°F1.6°C 98% 6.9 mph NE11.1 kmh NE -- -- 0.00 in0.0 mm 0.00 in0.0 mm 0.02 in0.5 mm
05:51 PM 35.4°F1.9°C 34.9°F1.6°C 98% 6.8 mph NE10.9 kmh NE -- -- 0.00 in0.0 mm 0.00 in0.0 mm 0.02 in0.5 mm
05:52 PM 35.2°F1.8°C 34.7°F1.5°C 98% 7.7 mph ENE12.4 kmh ENE -- -- 0.00 in0.0 mm 0.00 in0.0 mm 0.02 in0.5 mm
05:53 PM 35.2°F1.8°C 34.7°F1.5°C 98% 7.7 mph E12.4 kmh E -- -- 0.00 in0.0 mm 0.00 in0.0 mm 0.02 in0.5 mm
05:54 PM 35.2°F1.8°C 34.7°F1.5°C 98% 7.7 mph E12.4 kmh E 9.9 mph15.9 kmh -- 0.00 in0.0 mm 0.00 in0.0 mm 0.02 in0.5 mm
05:55 PM 35.2°F1.8°C 34.7°F1.5°C 98% 7.2 mph NE11.6 kmh NE -- -- 0.00 in0.0 mm 0.00 in0.0 mm 0.02 in0.5 mm
05:57 PM 35.2°F1.8°C 34.7°F1.5°C 98% 6.5 mph NNE10.5 kmh NNE -- -- 0.00 in0.0 mm 0.00 in0.0 mm 0.02 in0.5 mm
05:58 PM 35.2°F1.8°C 34.7°F1.5°C 98% 6.5 mph NE10.5 kmh NE -- -- 0.00 in0.0 mm 0.00 in0.0 mm 0.02 in0.5 mm
05:59 PM 35.2°F1.8°C 34.7°F1.5°C 98% 6.4 mph ESE10.3 kmh ESE -- -- 0.00 in0.0 mm 0.00 in0.0 mm 0.02 in0.5 mm
06:00 PM 35.2°F1.8°C 34.7°F1.5°C 98% 7.0 mph E11.3 kmh E -- -- 0.00 in0.0 mm 0.00 in0.0 mm 0.02 in0.5 mm
06:02 PM 35.2°F1.8°C 34.7°F1.5°C 98% 7.7 mph ENE12.4 kmh ENE -- -- 0.00 in0.0 mm 0.00 in0.0 mm 0.02 in0.5 mm
06:03 PM 35.2°F1.8°C 34.7°F1.5°C 98% 7.7 mph ENE12.4 kmh ENE -- -- 0.00 in0.0 mm 0.00 in0.0 mm 0.02 in0.5 mm
06:04 PM 35.2°F1.8°C 34.7°F1.5°C 98% 8.3 mph ENE13.4 kmh ENE -- -- 0.00 in0.0 mm 0.00 in0.0 mm 0.02 in0.5 mm
06:05 PM 35.2°F1.8°C 34.7°F1.5°C 98% 8.0 mph E12.9 kmh E -- -- 0.00 in0.0 mm 0.00 in0.0 mm 0.02 in0.5 mm
06:07 PM 35.2°F1.8°C 34.7°F1.5°C 98% 7.4 mph ENE11.9 kmh ENE -- -- 0.00 in0.0 mm 0.00 in0.0 mm 0.02 in0.5 mm
06:08 PM 35.2°F1.8°C 34.9°F1.6°C 99% 7.5 mph NE12.1 kmh NE -- -- 0.00 in0.0 mm 0.00 in0.0 mm 0.02 in0.5 mm
06:09 PM 35.2°F1.8°C 34.9°F1.6°C 99% 7.1 mph E11.4 kmh E -- -- 0.00 in0.0 mm 0.00 in0.0 mm 0.02 in0.5 mm
06:10 PM 35.2°F1.8°C 34.9°F1.6°C 99% 7.5 mph E12.1 kmh E -- -- 0.00 in0.0 mm 0.00 in0.0 mm 0.02 in0.5 mm
06:11 PM 35.2°F1.8°C 34.9°F1.6°C 99% 7.2 mph E11.6 kmh E -- -- 0.00 in0.0 mm 0.00 in0.0 mm 0.02 in0.5 mm
06:13 PM 35.2°F1.8°C 34.9°F1.6°C 99% 6.8 mph NE10.9 kmh NE -- -- 0.00 in0.0 mm 0.00 in0.0 mm 0.02 in0.5 mm
06:14 PM 35.2°F1.8°C 34.9°F1.6°C 99% 6.8 mph NE10.9 kmh NE -- -- 0.00 in0.0 mm 0.00 in0.0 mm 0.02 in0.5 mm
06:15 PM 35.2°F1.8°C 34.9°F1.6°C 99% 6.4 mph E10.3 kmh E -- -- 0.00 in0.0 mm 0.00 in0.0 mm 0.02 in0.5 mm
06:17 PM 35.1°F1.7°C 34.8°F1.6°C 99% 7.0 mph ENE11.3 kmh ENE -- -- 0.00 in0.0 mm 0.00 in0.0 mm 0.02 in0.5 mm
06:18 PM 35.1°F1.7°C 34.8°F1.6°C 99% 8.1 mph ENE13.0 kmh ENE -- -- 0.00 in0.0 mm 0.00 in0.0 mm 0.02 in0.5 mm
06:19 PM 35.1°F1.7°C 34.8°F1.6°C 99% 7.9 mph NE12.7 kmh NE -- -- 0.00 in0.0 mm 0.00 in0.0 mm 0.02 in0.5 mm
06:20 PM 35.1°F1.7°C 34.8°F1.6°C 99% 7.2 mph ENE11.6 kmh ENE -- -- 0.00 in0.0 mm 0.00 in0.0 mm 0.02 in0.5 mm
06:22 PM 35.1°F1.7°C 34.8°F1.6°C 99% 8.8 mph E14.2 kmh E -- -- 0.00 in0.0 mm 0.00 in0.0 mm 0.02 in0.5 mm
06:23 PM 35.1°F1.7°C 34.8°F1.6°C 99% 9.2 mph ENE14.8 kmh ENE -- -- 0.00 in0.0 mm 0.00 in0.0 mm 0.02 in0.5 mm
06:24 PM 35.1°F1.7°C 34.8°F1.6°C 99% 7.6 mph ENE12.2 kmh ENE -- -- 0.00 in0.0 mm 0.00 in0.0 mm 0.03 in0.8 mm
06:25 PM 35.1°F1.7°C 34.8°F1.6°C 99% 7.7 mph ENE12.4 kmh ENE -- -- 0.00 in0.0 mm 0.00 in0.0 mm 0.03 in0.8 mm
06:27 PM 35.1°F1.7°C 34.8°F1.6°C 99% 7.9 mph ENE12.7 kmh ENE -- -- 0.00 in0.0 mm 0.00 in0.0 mm 0.03 in0.8 mm
06:28 PM 35.1°F1.7°C 34.8°F1.6°C 99% 7.2 mph ENE11.6 kmh ENE -- -- 0.00 in0.0 mm 0.00 in0.0 mm 0.03 in0.8 mm
06:29 PM 34.9°F1.6°C 34.6°F1.4°C 99% 7.6 mph NE12.2 kmh NE -- -- 0.00 in0.0 mm 0.00 in0.0 mm 0.03 in0.8 mm
06:30 PM 34.9°F1.6°C 34.6°F1.4°C 99% 7.9 mph NE12.7 kmh NE -- -- 0.00 in0.0 mm 0.00 in0.0 mm 0.03 in0.8 mm
06:31 PM 34.9°F1.6°C 34.6°F1.4°C 99% 7.2 mph ENE11.6 kmh ENE -- -- 0.00 in0.0 mm 0.00 in0.0 mm 0.03 in0.8 mm
06:33 PM 34.9°F1.6°C 34.6°F1.4°C 99% 7.6 mph NE12.2 kmh NE -- -- 0.00 in0.0 mm 0.00 in0.0 mm 0.03 in0.8 mm
06:34 PM 34.9°F1.6°C 34.6°F1.4°C 99% 8.3 mph NE13.4 kmh NE -- -- 0.00 in0.0 mm 0.00 in0.0 mm 0.03 in0.8 mm
06:35 PM 34.9°F1.6°C 34.6°F1.4°C 99% 8.4 mph NNE13.5 kmh NNE -- -- 0.00 in0.0 mm 0.00 in0.0 mm 0.03 in0.8 mm
06:36 PM 34.9°F1.6°C 34.6°F1.4°C 99% 8.3 mph NE13.4 kmh NE -- -- 0.00 in0.0 mm 0.00 in0.0 mm 0.03 in0.8 mm
06:38 PM 34.9°F1.6°C 34.6°F1.4°C 99% 7.6 mph ENE12.2 kmh ENE -- -- 0.00 in0.0 mm 0.00 in0.0 mm 0.03 in0.8 mm
06:39 PM 34.9°F1.6°C 34.6°F1.4°C 99% 7.1 mph E11.4 kmh E -- -- 0.00 in0.0 mm 0.00 in0.0 mm 0.03 in0.8 mm
06:40 PM 34.9°F1.6°C 34.6°F1.4°C 99% 7.9 mph ENE12.7 kmh ENE -- -- 0.00 in0.0 mm 0.00 in0.0 mm 0.03 in0.8 mm
06:41 PM 34.9°F1.6°C 34.6°F1.4°C 99% 8.3 mph ENE13.4 kmh ENE -- -- 0.00 in0.0 mm 0.00 in0.0 mm 0.03 in0.8 mm
06:43 PM 34.9°F1.6°C 34.6°F1.4°C 99% 7.9 mph NE12.7 kmh NE -- -- 0.00 in0.0 mm 0.00 in0.0 mm 0.04 in1.0 mm
06:44 PM 34.9°F1.6°C 34.6°F1.4°C 99% 7.2 mph NE11.6 kmh NE -- -- 0.00 in0.0 mm 0.00 in0.0 mm 0.04 in1.0 mm
06:45 PM 34.9°F1.6°C 34.6°F1.4°C 99% 7.2 mph ENE11.6 kmh ENE -- -- 0.00 in0.0 mm 0.00 in0.0 mm 0.04 in1.0 mm
06:46 PM 34.9°F1.6°C 34.6°F1.4°C 99% 7.5 mph ENE12.1 kmh ENE -- -- 0.00 in0.0 mm 0.00 in0.0 mm 0.04 in1.0 mm
06:48 PM 34.9°F1.6°C 34.6°F1.4°C 99% 7.1 mph NE11.4 kmh NE -- -- 0.00 in0.0 mm 0.00 in0.0 mm 0.04 in1.0 mm
06:49 PM 34.9°F1.6°C 34.6°F1.4°C 99% 8.7 mph ENE14.0 kmh ENE -- -- 0.00 in0.0 mm 0.00 in0.0 mm 0.04 in1.0 mm
06:50 PM 34.9°F1.6°C 34.6°F1.4°C 99% 9.7 mph ENE15.6 kmh ENE -- -- 0.00 in0.0 mm 0.00 in0.0 mm 0.04 in1.0 mm
06:51 PM 34.9°F1.6°C 34.6°F1.4°C 99% 9.3 mph ENE15.0 kmh ENE -- -- 0.00 in0.0 mm 0.00 in0.0 mm 0.04 in1.0 mm
06:52 PM 34.9°F1.6°C 34.6°F1.4°C 99% 8.7 mph NE14.0 kmh NE -- -- 0.00 in0.0 mm 0.00 in0.0 mm 0.04 in1.0 mm
06:54 PM 34.9°F1.6°C 34.6°F1.4°C 99% 8.7 mph NE14.0 kmh NE -- -- 0.00 in0.0 mm 0.00 in0.0 mm 0.04 in1.0 mm
06:55 PM 34.7°F1.5°C 34.4°F1.3°C 99% 8.6 mph NE13.8 kmh NE -- -- 0.00 in0.0 mm 0.00 in0.0 mm 0.04 in1.0 mm
06:56 PM 34.7°F1.5°C 34.4°F1.3°C 99% 8.1 mph NE13.0 kmh NE -- -- 0.00 in0.0 mm 0.00 in0.0 mm 0.04 in1.0 mm
06:57 PM 34.7°F1.5°C 34.4°F1.3°C 99% 8.7 mph ENE14.0 kmh ENE -- -- 0.00 in0.0 mm 0.00 in0.0 mm 0.04 in1.0 mm
06:59 PM 34.7°F1.5°C 34.4°F1.3°C 99% 8.8 mph NE14.2 kmh NE -- -- 0.00 in0.0 mm 0.00 in0.0 mm 0.04 in1.0 mm
07:00 PM 34.7°F1.5°C 34.4°F1.3°C 99% 8.0 mph NE12.9 kmh NE -- -- 0.00 in0.0 mm 0.00 in0.0 mm 0.04 in1.0 mm
07:01 PM 34.7°F1.5°C 34.4°F1.3°C 99% 7.9 mph NE12.7 kmh NE -- -- 0.00 in0.0 mm 0.00 in0.0 mm 0.04 in1.0 mm
07:02 PM 34.7°F1.5°C 34.4°F1.3°C 99% 8.6 mph NE13.8 kmh NE -- -- 0.00 in0.0 mm 0.00 in0.0 mm 0.05 in1.3 mm
07:04 PM 34.7°F1.5°C 34.4°F1.3°C 99% 8.3 mph NE13.4 kmh NE -- -- 0.00 in0.0 mm 0.00 in0.0 mm 0.05 in1.3 mm
07:05 PM 34.7°F1.5°C 34.4°F1.3°C 99% 8.6 mph NE13.8 kmh NE 11.9 mph19.2 kmh -- 0.00 in0.0 mm 0.00 in0.0 mm 0.05 in1.3 mm
07:06 PM 34.7°F1.5°C 34.4°F1.3°C 99% 8.3 mph NE13.4 kmh NE -- -- 0.00 in0.0 mm 0.00 in0.0 mm 0.05 in1.3 mm
07:07 PM 34.7°F1.5°C 34.4°F1.3°C 99% 8.9 mph NNE14.3 kmh NNE -- -- 0.00 in0.0 mm 0.00 in0.0 mm 0.05 in1.3 mm
07:09 PM 34.7°F1.5°C 34.4°F1.3°C 99% 8.7 mph ENE14.0 kmh ENE -- -- 0.00 in0.0 mm 0.00 in0.0 mm 0.05 in1.3 mm
07:10 PM 34.7°F1.5°C 34.4°F1.3°C 99% 7.7 mph NE12.4 kmh NE -- -- 0.00 in0.0 mm 0.00 in0.0 mm 0.05 in1.3 mm
07:12 PM 34.7°F1.5°C 34.4°F1.3°C 99% 8.1 mph NE13.0 kmh NE -- -- 0.00 in0.0 mm 0.00 in0.0 mm 0.05 in1.3 mm
07:13 PM 34.7°F1.5°C 34.4°F1.3°C 99% 9.4 mph NE15.1 kmh NE -- -- 0.00 in0.0 mm 0.00 in0.0 mm 0.05 in1.3 mm
07:14 PM 34.7°F1.5°C 34.4°F1.3°C 99% 9.7 mph NE15.6 kmh NE -- -- 0.00 in0.0 mm 0.00 in0.0 mm 0.05 in1.3 mm
07:15 PM 34.7°F1.5°C 34.4°F1.3°C 99% 9.9 mph NE15.9 kmh NE -- -- 0.00 in0.0 mm 0.00 in0.0 mm 0.05 in1.3 mm
07:17 PM 34.7°F1.5°C 34.4°F1.3°C 99% 9.8 mph ENE15.8 kmh ENE -- -- 0.00 in0.0 mm 0.00 in0.0 mm 0.05 in1.3 mm
07:18 PM 34.7°F1.5°C 34.4°F1.3°C 99% 9.0 mph NE14.5 kmh NE -- -- 0.00 in0.0 mm 0.00 in0.0 mm 0.05 in1.3 mm
07:19 PM 34.7°F1.5°C 34.4°F1.3°C 99% 9.9 mph NE15.9 kmh NE -- -- 0.00 in0.0 mm 0.00 in0.0 mm 0.05 in1.3 mm
07:20 PM 34.7°F1.5°C 34.4°F1.3°C 99% 10.4 mph NE16.7 kmh NE -- -- 0.00 in0.0 mm 0.00 in0.0 mm 0.05 in1.3 mm
07:21 PM 34.7°F1.5°C 34.4°F1.3°C 99% 10.3 mph E16.6 kmh E -- -- 0.00 in0.0 mm 0.00 in0.0 mm 0.05 in1.3 mm
07:23 PM 34.7°F1.5°C 34.4°F1.3°C 99% 10.9 mph ENE17.5 kmh ENE -- -- 0.00 in0.0 mm 0.00 in0.0 mm 0.05 in1.3 mm
07:24 PM 34.7°F1.5°C 34.4°F1.3°C 99% 9.6 mph NE15.4 kmh NE -- -- 0.00 in0.0 mm 0.00 in0.0 mm 0.05 in1.3 mm
07:27 PM 34.7°F1.5°C 34.4°F1.3°C 99% 9.0 mph E14.5 kmh E -- -- 0.00 in0.0 mm 0.00 in0.0 mm 0.05 in1.3 mm
07:28 PM 34.5°F1.4°C 34.2°F1.2°C 99% 8.1 mph NE13.0 kmh NE -- -- 0.00 in0.0 mm 0.00 in0.0 mm 0.05 in1.3 mm
07:29 PM 34.5°F1.4°C 34.2°F1.2°C 99% 8.5 mph ENE13.7 kmh ENE -- -- 0.00 in0.0 mm 0.00 in0.0 mm 0.05 in1.3 mm
07:31 PM 34.5°F1.4°C 34.2°F1.2°C 99% 9.7 mph NE15.6 kmh NE -- -- 0.00 in0.0 mm 0.00 in0.0 mm 0.05 in1.3 mm
07:34 PM 34.5°F1.4°C 34.2°F1.2°C 99% 9.0 mph ENE14.5 kmh ENE -- -- 0.00 in0.0 mm 0.00 in0.0 mm 0.05 in1.3 mm
07:35 PM 34.5°F1.4°C 34.2°F1.2°C 99% 8.6 mph NE13.8 kmh NE 10.9 mph17.5 kmh -- 0.00 in0.0 mm 0.00 in0.0 mm 0.05 in1.3 mm
07:37 PM 34.5°F1.4°C 34.2°F1.2°C 99% 7.9 mph NE12.7 kmh NE -- -- 0.00 in0.0 mm 0.00 in0.0 mm 0.05 in1.3 mm
07:38 PM 34.5°F1.4°C 34.2°F1.2°C 99% 6.6 mph E10.6 kmh E -- -- 0.00 in0.0 mm 0.00 in0.0 mm 0.05 in1.3 mm
07:39 PM 34.5°F1.4°C 34.2°F1.2°C 99% 6.6 mph NE10.6 kmh NE -- -- 0.00 in0.0 mm 0.00 in0.0 mm 0.06 in1.5 mm
07:40 PM 34.5°F1.4°C 34.2°F1.2°C 99% 7.8 mph NE12.6 kmh NE -- -- 0.00 in0.0 mm 0.00 in0.0 mm 0.06 in1.5 mm
07:42 PM 34.5°F1.4°C 34.2°F1.2°C 99% 8.1 mph NE13.0 kmh NE -- -- 0.00 in0.0 mm 0.00 in0.0 mm 0.06 in1.5 mm
07:43 PM 34.5°F1.4°C 34.2°F1.2°C 99% 8.7 mph NE14.0 kmh NE -- -- 0.00 in0.0 mm 0.00 in0.0 mm 0.06 in1.5 mm
07:44 PM 34.5°F1.4°C 34.2°F1.2°C 99% 9.4 mph NE15.1 kmh NE -- -- 0.00 in0.0 mm 0.00 in0.0 mm 0.06 in1.5 mm
07:45 PM 34.5°F1.4°C 34.2°F1.2°C 99% 9.4 mph NE15.1 kmh NE -- -- 0.00 in0.0 mm 0.00 in0.0 mm 0.06 in1.5 mm
07:46 PM 34.5°F1.4°C 34.2°F1.2°C 99% 9.9 mph ENE15.9 kmh ENE -- -- 0.00 in0.0 mm 0.00 in0.0 mm 0.06 in1.5 mm
07:48 PM 34.5°F1.4°C 34.2°F1.2°C 99% 9.4 mph ENE15.1 kmh ENE -- -- 0.00 in0.0 mm 0.00 in0.0 mm 0.06 in1.5 mm
07:49 PM 34.5°F1.4°C 34.2°F1.2°C 99% 8.8 mph NE14.2 kmh NE -- -- 0.00 in0.0 mm 0.00 in0.0 mm 0.06 in1.5 mm
07:50 PM 34.5°F1.4°C 34.2°F1.2°C 99% 9.4 mph ENE15.1 kmh ENE -- -- 0.00 in0.0 mm 0.00 in0.0 mm 0.06 in1.5 mm
07:51 PM 34.5°F1.4°C 34.2°F1.2°C 99% 8.5 mph ENE13.7 kmh ENE -- -- 0.00 in0.0 mm 0.00 in0.0 mm 0.06 in1.5 mm
07:53 PM 34.5°F1.4°C 34.2°F1.2°C 99% 7.8 mph NE12.6 kmh NE -- -- 0.00 in0.0 mm 0.00 in0.0 mm 0.06 in1.5 mm
07:54 PM 34.5°F1.4°C 34.2°F1.2°C 99% 8.6 mph NE13.8 kmh NE -- -- 0.00 in0.0 mm 0.00 in0.0 mm 0.06 in1.5 mm
07:55 PM 34.5°F1.4°C 34.2°F1.2°C 99% 8.5 mph NE13.7 kmh NE -- -- 0.00 in0.0 mm 0.00 in0.0 mm 0.06 in1.5 mm
07:56 PM 34.5°F1.4°C 34.2°F1.2°C 99% 8.3 mph ENE13.4 kmh ENE 10.9 mph17.5 kmh -- 0.00 in0.0 mm 0.00 in0.0 mm 0.06 in1.5 mm
07:57 PM 34.5°F1.4°C 34.2°F1.2°C 99% 8.7 mph NE14.0 kmh NE -- -- 0.00 in0.0 mm 0.00 in0.0 mm 0.06 in1.5 mm
07:58 PM 34.5°F1.4°C 34.2°F1.2°C 99% 8.9 mph NE14.3 kmh NE -- -- 0.00 in0.0 mm 0.00 in0.0 mm 0.06 in1.5 mm
08:00 PM 34.5°F1.4°C 34.2°F1.2°C 99% 8.9 mph ENE14.3 kmh ENE -- -- 0.00 in0.0 mm 0.00 in0.0 mm 0.06 in1.5 mm
08:01 PM 34.5°F1.4°C 34.2°F1.2°C 99% 8.5 mph NE13.7 kmh NE -- -- 0.00 in0.0 mm 0.00 in0.0 mm 0.06 in1.5 mm
08:02 PM 34.5°F1.4°C 34.2°F1.2°C 99% 8.3 mph NE13.4 kmh NE -- -- 0.00 in0.0 mm 0.00 in0.0 mm 0.06 in1.5 mm
08:03 PM 34.5°F1.4°C 34.2°F1.2°C 99% 8.3 mph E13.4 kmh E -- -- 0.00 in0.0 mm 0.00 in0.0 mm 0.06 in1.5 mm
08:05 PM 34.5°F1.4°C 34.2°F1.2°C 99% 8.2 mph ENE13.2 kmh ENE -- -- 0.00 in0.0 mm 0.00 in0.0 mm 0.06 in1.5 mm
08:06 PM 34.5°F1.4°C 34.2°F1.2°C 99% 9.4 mph NE15.1 kmh NE -- -- 0.00 in0.0 mm 0.00 in0.0 mm 0.06 in1.5 mm
08:07 PM 34.5°F1.4°C 34.2°F1.2°C 99% 9.6 mph ENE15.4 kmh ENE -- -- 0.00 in0.0 mm 0.00 in0.0 mm 0.06 in1.5 mm
08:08 PM 34.5°F1.4°C 34.2°F1.2°C 99% 10.0 mph ENE16.1 kmh ENE -- -- 0.00 in0.0 mm 0.00 in0.0 mm 0.06 in1.5 mm
08:10 PM 34.5°F1.4°C 34.2°F1.2°C 99% 9.7 mph NE15.6 kmh NE -- -- 0.00 in0.0 mm 0.00 in0.0 mm 0.06 in1.5 mm
08:11 PM 34.5°F1.4°C 34.2°F1.2°C 99% 8.8 mph NNE14.2 kmh NNE -- -- 0.00 in0.0 mm 0.00 in0.0 mm 0.06 in1.5 mm
08:12 PM 34.5°F1.4°C 34.2°F1.2°C 99% 8.2 mph ENE13.2 kmh ENE -- -- 0.00 in0.0 mm 0.00 in0.0 mm 0.06 in1.5 mm
08:13 PM 34.5°F1.4°C 34.2°F1.2°C 99% 7.7 mph ENE12.4 kmh ENE -- -- 0.00 in0.0 mm 0.00 in0.0 mm 0.06 in1.5 mm
08:14 PM 34.5°F1.4°C 34.2°F1.2°C 99% 6.9 mph NE11.1 kmh NE -- -- 0.00 in0.0 mm 0.00 in0.0 mm 0.06 in1.5 mm
08:15 PM 34.5°F1.4°C 34.2°F1.2°C 99% 7.7 mph ENE12.4 kmh ENE -- -- 0.00 in0.0 mm 0.00 in0.0 mm 0.06 in1.5 mm
08:17 PM 34.5°F1.4°C 34.2°F1.2°C 99% 8.7 mph ENE14.0 kmh ENE -- -- 0.00 in0.0 mm 0.00 in0.0 mm 0.08 in2.0 mm
08:18 PM 34.5°F1.4°C 34.2°F1.2°C 99% 9.0 mph E14.5 kmh E -- -- 0.00 in0.0 mm 0.00 in0.0 mm 0.08 in2.0 mm
08:19 PM 34.5°F1.4°C 34.2°F1.2°C 99% 7.5 mph ENE12.1 kmh ENE -- -- 0.00 in0.0 mm 0.00 in0.0 mm 0.08 in2.0 mm
08:20 PM 34.3°F1.3°C 34.0°F1.1°C 99% 7.6 mph E12.2 kmh E -- -- 0.00 in0.0 mm 0.00 in0.0 mm 0.08 in2.0 mm
08:22 PM 34.3°F1.3°C 34.0°F1.1°C 99% 7.9 mph E12.7 kmh E -- -- 0.00 in0.0 mm 0.00 in0.0 mm 0.08 in2.0 mm
08:23 PM 34.3°F1.3°C 34.0°F1.1°C 99% 8.0 mph E12.9 kmh E -- -- 0.00 in0.0 mm 0.00 in0.0 mm 0.08 in2.0 mm
08:24 PM 34.3°F1.3°C 34.0°F1.1°C 99% 6.9 mph E11.1 kmh E -- -- 0.00 in0.0 mm 0.00 in0.0 mm 0.08 in2.0 mm
08:25 PM 34.3°F1.3°C 34.0°F1.1°C 99% 7.3 mph ESE11.7 kmh ESE -- -- 0.00 in0.0 mm 0.00 in0.0 mm 0.10 in2.5 mm
08:27 PM 34.3°F1.3°C 34.0°F1.1°C 99% 8.3 mph ENE13.4 kmh ENE -- -- 0.00 in0.0 mm 0.00 in0.0 mm 0.10 in2.5 mm
08:28 PM 34.3°F1.3°C 34.0°F1.1°C 99% 8.6 mph E13.8 kmh E -- -- 0.00 in0.0 mm 0.00 in0.0 mm 0.10 in2.5 mm
08:29 PM 34.3°F1.3°C 34.0°F1.1°C 99% 7.9 mph ENE12.7 kmh ENE -- -- 0.00 in0.0 mm 0.00 in0.0 mm 0.10 in2.5 mm
08:30 PM 34.3°F1.3°C 34.0°F1.1°C 99% 9.2 mph ENE14.8 kmh ENE -- -- 0.00 in0.0 mm 0.00 in0.0 mm 0.12 in3.0 mm
08:31 PM 34.3°F1.3°C 34.0°F1.1°C 99% 9.3 mph E15.0 kmh E -- -- 0.00 in0.0 mm 0.00 in0.0 mm 0.12 in3.0 mm
08:33 PM 34.3°F1.3°C 34.0°F1.1°C 99% 9.7 mph ENE15.6 kmh ENE -- -- 0.00 in0.0 mm 0.00 in0.0 mm 0.12 in3.0 mm
08:34 PM 34.3°F1.3°C 34.0°F1.1°C 99% 10.0 mph ENE16.1 kmh ENE -- -- 0.00 in0.0 mm 0.00 in0.0 mm 0.14 in3.6 mm
08:35 PM 34.3°F1.3°C 34.0°F1.1°C 99% 9.3 mph ENE15.0 kmh ENE -- -- 0.00 in0.0 mm 0.00 in0.0 mm 0.14 in3.6 mm
08:36 PM 34.3°F1.3°C 34.0°F1.1°C 99% 9.0 mph E14.5 kmh E -- -- 0.00 in0.0 mm 0.00 in0.0 mm 0.14 in3.6 mm
08:38 PM 34.3°F1.3°C 34.0°F1.1°C 99% 9.1 mph ENE14.6 kmh ENE -- -- 0.00 in0.0 mm 0.00 in0.0 mm 0.16 in4.1 mm
08:39 PM 34.3°F1.3°C 34.0°F1.1°C 99% 9.4 mph E15.1 kmh E -- -- 0.00 in0.0 mm 0.00 in0.0 mm 0.16 in4.1 mm
08:40 PM 34.3°F1.3°C 34.0°F1.1°C 99% 9.3 mph NE15.0 kmh NE -- -- 0.00 in0.0 mm 0.00 in0.0 mm 0.16 in4.1 mm
08:41 PM 34.3°F1.3°C 34.0°F1.1°C 99% 9.6 mph NE15.4 kmh NE 15.0 mph24.1 kmh -- 0.00 in0.0 mm 0.00 in0.0 mm 0.16 in4.1 mm
08:43 PM 34.3°F1.3°C 34.0°F1.1°C 99% 9.1 mph ENE14.6 kmh ENE 12.5 mph20.1 kmh -- 0.00 in0.0 mm 0.00 in0.0 mm 0.16 in4.1 mm
08:50 PM 34.3°F1.3°C 34.0°F1.1°C 99% 8.9 mph NE14.3 kmh NE -- -- 0.00 in0.0 mm 0.00 in0.0 mm 0.18 in4.6 mm
08:51 PM 34.5°F1.4°C 34.2°F1.2°C 99% 9.3 mph ENE15.0 kmh ENE -- -- 0.00 in0.0 mm 0.00 in0.0 mm 0.18 in4.6 mm
08:52 PM 34.5°F1.4°C 34.2°F1.2°C 99% 9.4 mph ENE15.1 kmh ENE -- -- 0.00 in0.0 mm 0.00 in0.0 mm 0.18 in4.6 mm
08:54 PM 34.5°F1.4°C 34.2°F1.2°C 99% 8.9 mph ENE14.3 kmh ENE 13.5 mph21.7 kmh -- 0.00 in0.0 mm 0.00 in0.0 mm 0.18 in4.6 mm
08:55 PM 34.5°F1.4°C 34.2°F1.2°C 99% 8.8 mph E14.2 kmh E -- -- 0.00 in0.0 mm 0.00 in0.0 mm 0.18 in4.6 mm
08:56 PM 34.5°F1.4°C 34.2°F1.2°C 99% 9.1 mph E14.6 kmh E -- -- 0.00 in0.0 mm 0.00 in0.0 mm 0.19 in4.8 mm
08:57 PM 34.5°F1.4°C 34.2°F1.2°C 99% 8.7 mph E14.0 kmh E -- -- 0.00 in0.0 mm 0.00 in0.0 mm 0.20 in5.1 mm
08:59 PM 34.5°F1.4°C 34.2°F1.2°C 99% 8.9 mph ENE14.3 kmh ENE -- -- 0.00 in0.0 mm 0.00 in0.0 mm 0.20 in5.1 mm
09:00 PM 34.5°F1.4°C 34.2°F1.2°C 99% 8.7 mph ENE14.0 kmh ENE -- -- 0.00 in0.0 mm 0.00 in0.0 mm 0.20 in5.1 mm
09:01 PM 34.5°F1.4°C 34.2°F1.2°C 99% 9.2 mph ENE14.8 kmh ENE -- -- 0.00 in0.0 mm 0.00 in0.0 mm 0.20 in5.1 mm
09:02 PM 34.7°F1.5°C 34.4°F1.3°C 99% 10.0 mph NE16.1 kmh NE -- -- 0.00 in0.0 mm 0.00 in0.0 mm 0.21 in5.3 mm
09:04 PM 34.7°F1.5°C 34.4°F1.3°C 99% 9.9 mph ENE15.9 kmh ENE -- -- 0.00 in0.0 mm 0.00 in0.0 mm 0.22 in5.6 mm
09:05 PM 34.7°F1.5°C 34.4°F1.3°C 99% 7.9 mph NE12.7 kmh NE -- -- 0.00 in0.0 mm 0.00 in0.0 mm 0.22 in5.6 mm
09:06 PM 34.7°F1.5°C 34.4°F1.3°C 99% 8.5 mph E13.7 kmh E -- -- 0.00 in0.0 mm 0.00 in0.0 mm 0.22 in5.6 mm
09:07 PM 34.7°F1.5°C 34.4°F1.3°C 99% 8.9 mph ENE14.3 kmh ENE -- -- 0.00 in0.0 mm 0.00 in0.0 mm 0.22 in5.6 mm
09:09 PM 34.7°F1.5°C 34.4°F1.3°C 99% 7.7 mph E12.4 kmh E -- -- 0.00 in0.0 mm 0.00 in0.0 mm 0.22 in5.6 mm
09:10 PM 34.7°F1.5°C 34.4°F1.3°C 99% 7.6 mph E12.2 kmh E -- -- 0.00 in0.0 mm 0.00 in0.0 mm 0.22 in5.6 mm
09:11 PM 34.7°F1.5°C 34.4°F1.3°C 99% 8.6 mph E13.8 kmh E -- -- 0.00 in0.0 mm 0.00 in0.0 mm 0.22 in5.6 mm
09:12 PM 34.7°F1.5°C 34.4°F1.3°C 99% 8.0 mph NE12.9 kmh NE -- -- 0.00 in0.0 mm 0.00 in0.0 mm 0.22 in5.6 mm
09:13 PM 34.7°F1.5°C 34.4°F1.3°C 99% 6.6 mph ENE10.6 kmh ENE -- -- 0.00 in0.0 mm 0.00 in0.0 mm 0.22 in5.6 mm
09:15 PM 34.7°F1.5°C 34.4°F1.3°C 99% 6.2 mph ENE10.0 kmh ENE -- -- 0.00 in0.0 mm 0.00 in0.0 mm 0.22 in5.6 mm
09:16 PM 34.7°F1.5°C 34.4°F1.3°C 99% 6.8 mph E10.9 kmh E -- -- 0.00 in0.0 mm 0.00 in0.0 mm 0.22 in5.6 mm
09:17 PM 34.9°F1.6°C 34.6°F1.4°C 99% 7.5 mph ENE12.1 kmh ENE -- -- 0.00 in0.0 mm 0.00 in0.0 mm 0.23 in5.8 mm
09:18 PM 34.9°F1.6°C 34.6°F1.4°C 99% 8.2 mph ENE13.2 kmh ENE -- -- 0.00 in0.0 mm 0.00 in0.0 mm 0.23 in5.8 mm
09:20 PM 34.9°F1.6°C 34.6°F1.4°C 99% 8.3 mph NE13.4 kmh NE -- -- 0.00 in0.0 mm 0.00 in0.0 mm 0.24 in6.1 mm
09:21 PM 34.9°F1.6°C 34.6°F1.4°C 99% 6.7 mph ENE10.8 kmh ENE 8.3 mph13.4 kmh -- 0.00 in0.0 mm 0.00 in0.0 mm 0.24 in6.1 mm
09:22 PM 34.9°F1.6°C 34.6°F1.4°C 99% 7.8 mph E12.6 kmh E -- -- 0.00 in0.0 mm 0.00 in0.0 mm 0.24 in6.1 mm
09:23 PM 34.9°F1.6°C 34.6°F1.4°C 99% 8.0 mph E12.9 kmh E -- -- 0.00 in0.0 mm 0.00 in0.0 mm 0.24 in6.1 mm
09:25 PM 35.1°F1.7°C 34.8°F1.6°C 99% 9.0 mph E14.5 kmh E -- -- 0.00 in0.0 mm 0.00 in0.0 mm 0.24 in6.1 mm
09:26 PM 35.1°F1.7°C 34.8°F1.6°C 99% 7.7 mph E12.4 kmh E -- -- 0.00 in0.0 mm 0.00 in0.0 mm 0.24 in6.1 mm
09:27 PM 35.1°F1.7°C 34.8°F1.6°C 99% 6.5 mph NE10.5 kmh NE -- -- 0.00 in0.0 mm 0.00 in0.0 mm 0.24 in6.1 mm
09:28 PM 35.1°F1.7°C 34.8°F1.6°C 99% 6.7 mph ENE10.8 kmh ENE 8.3 mph13.4 kmh -- 0.00 in0.0 mm 0.00 in0.0 mm 0.24 in6.1 mm
09:29 PM 35.1°F1.7°C 34.8°F1.6°C 99% 6.8 mph NE10.9 kmh NE -- -- 0.00 in0.0 mm 0.00 in0.0 mm 0.24 in6.1 mm
09:31 PM 35.1°F1.7°C 34.8°F1.6°C 99% 7.7 mph E12.4 kmh E -- -- 0.00 in0.0 mm 0.00 in0.0 mm 0.24 in6.1 mm
09:32 PM 35.1°F1.7°C 34.8°F1.6°C 99% 8.6 mph ENE13.8 kmh ENE -- -- 0.00 in0.0 mm 0.00 in0.0 mm 0.24 in6.1 mm
09:33 PM 35.1°F1.7°C 34.8°F1.6°C 99% 8.0 mph ENE12.9 kmh ENE -- -- 0.00 in0.0 mm 0.00 in0.0 mm 0.24 in6.1 mm
09:34 PM 35.1°F1.7°C 34.8°F1.6°C 99% 8.3 mph E13.4 kmh E -- -- 0.00 in0.0 mm 0.00 in0.0 mm 0.24 in6.1 mm
09:36 PM 35.1°F1.7°C 34.8°F1.6°C 99% 7.6 mph ESE12.2 kmh ESE -- -- 0.00 in0.0 mm 0.00 in0.0 mm 0.24 in6.1 mm
09:37 PM 35.1°F1.7°C 34.8°F1.6°C 99% 7.1 mph E11.4 kmh E -- -- 0.00 in0.0 mm 0.00 in0.0 mm 0.24 in6.1 mm
09:38 PM 35.2°F1.8°C 34.9°F1.6°C 99% 8.3 mph E13.4 kmh E -- -- 0.00 in0.0 mm 0.00 in0.0 mm 0.24 in6.1 mm
09:39 PM 35.2°F1.8°C 34.9°F1.6°C 99% 8.0 mph E12.9 kmh E -- -- 0.00 in0.0 mm 0.00 in0.0 mm 0.24 in6.1 mm
09:41 PM 35.2°F1.8°C 34.9°F1.6°C 99% 7.7 mph E12.4 kmh E -- -- 0.00 in0.0 mm 0.00 in0.0 mm 0.24 in6.1 mm
09:42 PM 35.2°F1.8°C 34.9°F1.6°C 99% 8.3 mph ENE13.4 kmh ENE -- -- 0.00 in0.0 mm 0.00 in0.0 mm 0.24 in6.1 mm
09:43 PM 35.2°F1.8°C 34.9°F1.6°C 99% 7.1 mph NE11.4 kmh NE -- -- 0.00 in0.0 mm 0.00 in0.0 mm 0.24 in6.1 mm
09:44 PM 35.2°F1.8°C 34.9°F1.6°C 99% 7.7 mph E12.4 kmh E 10.9 mph17.5 kmh -- 0.00 in0.0 mm 0.00 in0.0 mm 0.24 in6.1 mm
09:46 PM 35.2°F1.8°C 34.9°F1.6°C 99% 8.0 mph NE12.9 kmh NE -- -- 0.00 in0.0 mm 0.00 in0.0 mm 0.24 in6.1 mm
09:47 PM 35.2°F1.8°C 34.9°F1.6°C 99% 7.4 mph E11.9 kmh E -- -- 0.00 in0.0 mm 0.00 in0.0 mm 0.24 in6.1 mm
09:48 PM 35.2°F1.8°C 34.9°F1.6°C 99% 7.2 mph ENE11.6 kmh ENE -- -- 0.00 in0.0 mm 0.00 in0.0 mm 0.24 in6.1 mm
09:49 PM 35.2°F1.8°C 34.9°F1.6°C 99% 7.8 mph NE12.6 kmh NE -- -- 0.00 in0.0 mm 0.00 in0.0 mm 0.24 in6.1 mm
09:50 PM 35.4°F1.9°C 35.1°F1.7°C 99% 10.0 mph E16.1 kmh E -- -- 0.00 in0.0 mm 0.00 in0.0 mm 0.24 in6.1 mm
09:52 PM 35.4°F1.9°C 35.1°F1.7°C 99% 10.1 mph E16.3 kmh E -- -- 0.00 in0.0 mm 0.00 in0.0 mm 0.24 in6.1 mm
09:53 PM 35.4°F1.9°C 35.1°F1.7°C 99% 8.8 mph NE14.2 kmh NE -- -- 0.00 in0.0 mm 0.00 in0.0 mm 0.24 in6.1 mm
09:54 PM 35.6°F2.0°C 35.3°F1.8°C 99% 8.1 mph E13.0 kmh E -- -- 0.00 in0.0 mm 0.00 in0.0 mm 0.24 in6.1 mm
09:55 PM 35.6°F2.0°C 35.3°F1.8°C 99% 8.9 mph E14.3 kmh E -- -- 0.00 in0.0 mm 0.00 in0.0 mm 0.24 in6.1 mm
09:57 PM 35.6°F2.0°C 35.3°F1.8°C 99% 9.1 mph ENE14.6 kmh ENE -- -- 0.00 in0.0 mm 0.00 in0.0 mm 0.24 in6.1 mm
09:58 PM 35.6°F2.0°C 35.3°F1.8°C 99% 8.6 mph E13.8 kmh E -- -- 0.00 in0.0 mm 0.00 in0.0 mm 0.24 in6.1 mm
09:59 PM 35.6°F2.0°C 35.3°F1.8°C 99% 7.9 mph ENE12.7 kmh ENE -- -- 0.00 in0.0 mm 0.00 in0.0 mm 0.24 in6.1 mm
10:00 PM 35.8°F2.1°C 35.5°F1.9°C 99% 8.9 mph ENE14.3 kmh ENE -- -- 0.00 in0.0 mm 0.00 in0.0 mm 0.24 in6.1 mm
10:02 PM 35.8°F2.1°C 35.5°F1.9°C 99% 8.8 mph E14.2 kmh E -- -- 0.00 in0.0 mm 0.00 in0.0 mm 0.24 in6.1 mm
10:03 PM 35.8°F2.1°C 35.5°F1.9°C 99% 8.3 mph E13.4 kmh E -- -- 0.00 in0.0 mm 0.00 in0.0 mm 0.24 in6.1 mm
10:04 PM 35.8°F2.1°C 35.5°F1.9°C 99% 9.2 mph E14.8 kmh E -- -- 0.00 in0.0 mm 0.00 in0.0 mm 0.24 in6.1 mm
10:05 PM 35.8°F2.1°C 35.5°F1.9°C 99% 9.4 mph E15.1 kmh E -- -- 0.00 in0.0 mm 0.00 in0.0 mm 0.24 in6.1 mm
10:06 PM 35.8°F2.1°C 35.5°F1.9°C 99% 8.3 mph E13.4 kmh E -- -- 0.00 in0.0 mm 0.00 in0.0 mm 0.24 in6.1 mm
10:08 PM 35.8°F2.1°C 35.5°F1.9°C 99% 8.3 mph NE13.4 kmh NE -- -- 0.00 in0.0 mm 0.00 in0.0 mm 0.24 in6.1 mm
10:09 PM 35.8°F2.1°C 35.5°F1.9°C 99% 9.1 mph E14.6 kmh E -- -- 0.00 in0.0 mm 0.00 in0.0 mm 0.24 in6.1 mm
10:10 PM 35.8°F2.1°C 35.5°F1.9°C 99% 8.7 mph E14.0 kmh E -- -- 0.00 in0.0 mm 0.00 in0.0 mm 0.24 in6.1 mm
10:11 PM 35.8°F2.1°C 35.5°F1.9°C 99% 8.5 mph E13.7 kmh E -- -- 0.00 in0.0 mm 0.00 in0.0 mm 0.24 in6.1 mm
10:13 PM 35.8°F2.1°C 35.5°F1.9°C 99% 9.8 mph ENE15.8 kmh ENE -- -- 0.00 in0.0 mm 0.00 in0.0 mm 0.24 in6.1 mm
10:14 PM 36.0°F2.2°C 35.7°F2.1°C 99% 11.3 mph E18.2 kmh E -- -- 0.00 in0.0 mm 0.00 in0.0 mm 0.24 in6.1 mm
10:15 PM 36.0°F2.2°C 35.7°F2.1°C 99% 10.1 mph E16.3 kmh E -- -- 0.00 in0.0 mm 0.00 in0.0 mm 0.24 in6.1 mm
10:16 PM 36.0°F2.2°C 35.7°F2.1°C 99% 8.6 mph E13.8 kmh E -- -- 0.00 in0.0 mm 0.00 in0.0 mm 0.24 in6.1 mm
10:18 PM 36.0°F2.2°C 35.7°F2.1°C 99% 9.4 mph ENE15.1 kmh ENE -- -- 0.00 in0.0 mm 0.00 in0.0 mm 0.24 in6.1 mm
10:19 PM 36.0°F2.2°C 35.7°F2.1°C 99% 9.4 mph ENE15.1 kmh ENE -- -- 0.00 in0.0 mm 0.00 in0.0 mm 0.24 in6.1 mm
10:20 PM 36.0°F2.2°C 35.7°F2.1°C 99% 8.8 mph ENE14.2 kmh ENE -- -- 0.00 in0.0 mm 0.00 in0.0 mm 0.24 in6.1 mm
10:21 PM 36.0°F2.2°C 35.7°F2.1°C 99% 9.2 mph ESE14.8 kmh ESE -- -- 0.00 in0.0 mm 0.00 in0.0 mm 0.24 in6.1 mm
10:23 PM 36.1°F2.3°C 35.8°F2.1°C 99% 10.1 mph E16.3 kmh E -- -- 0.00 in0.0 mm 0.00 in0.0 mm 0.24 in6.1 mm
10:24 PM 36.1°F2.3°C 35.8°F2.1°C 99% 10.0 mph E16.1 kmh E -- -- 0.00 in0.0 mm 0.00 in0.0 mm 0.24 in6.1 mm
10:25 PM 36.1°F2.3°C 35.8°F2.1°C 99% 9.8 mph ENE15.8 kmh ENE -- -- 0.00 in0.0 mm 0.00 in0.0 mm 0.24 in6.1 mm
10:26 PM 36.3°F2.4°C 36.0°F2.2°C 99% 10.6 mph E17.1 kmh E -- -- 0.00 in0.0 mm 0.00 in0.0 mm 0.24 in6.1 mm
10:27 PM 36.3°F2.4°C 36.0°F2.2°C 99% 11.3 mph E18.2 kmh E -- -- 0.00 in0.0 mm 0.00 in0.0 mm 0.24 in6.1 mm
10:29 PM 36.3°F2.4°C 36.0°F2.2°C 99% 10.4 mph E16.7 kmh E -- -- 0.00 in0.0 mm 0.00 in0.0 mm 0.24 in6.1 mm
10:30 PM 36.3°F2.4°C 36.0°F2.2°C 99% 11.2 mph E18.0 kmh E 14.5 mph23.3 kmh -- 0.00 in0.0 mm 0.00 in0.0 mm 0.24 in6.1 mm
10:31 PM 36.3°F2.4°C 36.0°F2.2°C 99% 11.4 mph E18.3 kmh E -- -- 0.00 in0.0 mm 0.00 in0.0 mm 0.24 in6.1 mm
10:32 PM 36.3°F2.4°C 36.0°F2.2°C 99% 11.0 mph ESE17.7 kmh ESE -- -- 0.00 in0.0 mm 0.00 in0.0 mm 0.24 in6.1 mm
10:33 PM 36.3°F2.4°C 36.0°F2.2°C 99% 10.2 mph E16.4 kmh E -- -- 0.00 in0.0 mm 0.00 in0.0 mm 0.24 in6.1 mm
10:35 PM 36.3°F2.4°C 36.0°F2.2°C 99% 9.4 mph E15.1 kmh E -- -- 0.00 in0.0 mm 0.00 in0.0 mm 0.24 in6.1 mm
10:36 PM 36.3°F2.4°C 36.0°F2.2°C 99% 8.0 mph E12.9 kmh E -- -- 0.00 in0.0 mm 0.00 in0.0 mm 0.24 in6.1 mm
10:38 PM 36.5°F2.5°C 36.2°F2.3°C 99% 8.1 mph ESE13.0 kmh ESE -- -- 0.00 in0.0 mm 0.00 in0.0 mm 0.24 in6.1 mm
10:39 PM 36.5°F2.5°C 36.2°F2.3°C 99% 9.7 mph ESE15.6 kmh ESE -- -- 0.00 in0.0 mm 0.00 in0.0 mm 0.24 in6.1 mm
10:46 PM 36.5°F2.5°C 36.2°F2.3°C 99% 10.6 mph ESE17.1 kmh ESE -- -- 0.00 in0.0 mm 0.00 in0.0 mm 0.24 in6.1 mm
10:47 PM 36.5°F2.5°C 36.2°F2.3°C 99% 11.0 mph E17.7 kmh E -- -- 0.00 in0.0 mm 0.00 in0.0 mm 0.24 in6.1 mm
10:48 PM 36.5°F2.5°C 36.2°F2.3°C 99% 9.8 mph E15.8 kmh E -- -- 0.00 in0.0 mm 0.00 in0.0 mm 0.24 in6.1 mm
10:50 PM 36.5°F2.5°C 36.2°F2.3°C 99% 8.5 mph ESE13.7 kmh ESE -- -- 0.00 in0.0 mm 0.00 in0.0 mm 0.24 in6.1 mm
10:51 PM 36.5°F2.5°C 36.2°F2.3°C 99% 8.6 mph E13.8 kmh E -- -- 0.00 in0.0 mm 0.00 in0.0 mm 0.24 in6.1 mm
10:52 PM 36.5°F2.5°C 36.2°F2.3°C 99% 9.8 mph ESE15.8 kmh ESE -- -- 0.00 in0.0 mm 0.00 in0.0 mm 0.24 in6.1 mm
10:53 PM 36.5°F2.5°C 36.2°F2.3°C 99% 10.4 mph ESE16.7 kmh ESE -- -- 0.00 in0.0 mm 0.00 in0.0 mm 0.24 in6.1 mm
10:55 PM 36.5°F2.5°C 36.2°F2.3°C 99% 9.1 mph E14.6 kmh E -- -- 0.00 in0.0 mm 0.00 in0.0 mm 0.24 in6.1 mm
10:56 PM 36.5°F2.5°C 36.2°F2.3°C 99% 8.6 mph E13.8 kmh E -- -- 0.00 in0.0 mm 0.00 in0.0 mm 0.24 in6.1 mm
10:57 PM 36.5°F2.5°C 36.2°F2.3°C 99% 8.6 mph E13.8 kmh E -- -- 0.00 in0.0 mm 0.00 in0.0 mm 0.24 in6.1 mm
10:58 PM 36.5°F2.5°C 36.2°F2.3°C 99% 8.8 mph ESE14.2 kmh ESE 11.4 mph18.3 kmh -- 0.00 in0.0 mm 0.00 in0.0 mm 0.24 in6.1 mm
11:00 PM 36.5°F2.5°C 36.2°F2.3°C 99% 8.7 mph E14.0 kmh E -- -- 0.00 in0.0 mm 0.00 in0.0 mm 0.24 in6.1 mm
11:01 PM 36.5°F2.5°C 36.2°F2.3°C 99% 8.8 mph E14.2 kmh E -- -- 0.00 in0.0 mm 0.00 in0.0 mm 0.24 in6.1 mm
11:02 PM 36.7°F2.6°C 36.4°F2.4°C 99% 9.3 mph E15.0 kmh E -- -- 0.00 in0.0 mm 0.00 in0.0 mm 0.24 in6.1 mm
11:03 PM 36.7°F2.6°C 36.4°F2.4°C 99% 8.3 mph E13.4 kmh E -- -- 0.00 in0.0 mm 0.00 in0.0 mm 0.24 in6.1 mm
11:04 PM 36.7°F2.6°C 36.4°F2.4°C 99% 8.1 mph ESE13.0 kmh ESE -- -- 0.00 in0.0 mm 0.00 in0.0 mm 0.24 in6.1 mm
11:06 PM 36.7°F2.6°C 36.4°F2.4°C 99% 8.0 mph E12.9 kmh E 13.0 mph20.9 kmh -- 0.00 in0.0 mm 0.00 in0.0 mm 0.24 in6.1 mm
11:07 PM 36.7°F2.6°C 36.4°F2.4°C 99% 8.6 mph E13.8 kmh E -- -- 0.00 in0.0 mm 0.00 in0.0 mm 0.24 in6.1 mm
11:08 PM 36.7°F2.6°C 36.4°F2.4°C 99% 8.5 mph ESE13.7 kmh ESE -- -- 0.00 in0.0 mm 0.00 in0.0 mm 0.24 in6.1 mm
11:09 PM 36.7°F2.6°C 36.4°F2.4°C 99% 8.3 mph ESE13.4 kmh ESE -- -- 0.00 in0.0 mm 0.00 in0.0 mm 0.24 in6.1 mm
11:11 PM 36.7°F2.6°C 36.4°F2.4°C 99% 8.9 mph NE14.3 kmh NE -- -- 0.00 in0.0 mm 0.00 in0.0 mm 0.24 in6.1 mm
11:12 PM 36.7°F2.6°C 36.4°F2.4°C 99% 8.9 mph ESE14.3 kmh ESE -- -- 0.00 in0.0 mm 0.00 in0.0 mm 0.24 in6.1 mm
11:13 PM 36.7°F2.6°C 36.4°F2.4°C 99% 7.9 mph ESE12.7 kmh ESE -- -- 0.00 in0.0 mm 0.00 in0.0 mm 0.24 in6.1 mm
11:14 PM 36.7°F2.6°C 36.4°F2.4°C 99% 8.3 mph E13.4 kmh E -- -- 0.00 in0.0 mm 0.00 in0.0 mm 0.24 in6.1 mm
11:16 PM 36.7°F2.6°C 36.4°F2.4°C 99% 9.7 mph ESE15.6 kmh ESE -- -- 0.00 in0.0 mm 0.00 in0.0 mm 0.24 in6.1 mm
11:23 PM 36.9°F2.7°C 36.6°F2.6°C 99% 9.6 mph E15.4 kmh E -- -- 0.00 in0.0 mm 0.00 in0.0 mm 0.24 in6.1 mm
11:24 PM 36.9°F2.7°C 36.6°F2.6°C 99% 7.7 mph ESE12.4 kmh ESE -- -- 0.00 in0.0 mm 0.00 in0.0 mm 0.24 in6.1 mm
11:25 PM 36.9°F2.7°C 36.6°F2.6°C 99% 7.4 mph ENE11.9 kmh ENE -- -- 0.00 in0.0 mm 0.00 in0.0 mm 0.24 in6.1 mm
11:27 PM 36.9°F2.7°C 36.6°F2.6°C 99% 6.4 mph E10.3 kmh E -- -- 0.00 in0.0 mm 0.00 in0.0 mm 0.24 in6.1 mm
11:28 PM 36.9°F2.7°C 36.6°F2.6°C 99% 7.5 mph E12.1 kmh E -- -- 0.00 in0.0 mm 0.00 in0.0 mm 0.24 in6.1 mm
11:29 PM 36.9°F2.7°C 36.6°F2.6°C 99% 9.0 mph E14.5 kmh E -- -- 0.00 in0.0 mm 0.00 in0.0 mm 0.24 in6.1 mm
11:30 PM 36.9°F2.7°C 36.6°F2.6°C 99% 8.4 mph ENE13.5 kmh ENE -- -- 0.00 in0.0 mm 0.00 in0.0 mm 0.24 in6.1 mm
11:32 PM 36.9°F2.7°C 36.6°F2.6°C 99% 7.9 mph ENE12.7 kmh ENE 9.9 mph15.9 kmh -- 0.00 in0.0 mm 0.00 in0.0 mm 0.24 in6.1 mm
11:33 PM 36.9°F2.7°C 36.6°F2.6°C 99% 7.9 mph E12.7 kmh E -- -- 0.00 in0.0 mm 0.00 in0.0 mm 0.24 in6.1 mm
11:34 PM 36.9°F2.7°C 36.6°F2.6°C 99% 7.9 mph E12.7 kmh E -- -- 0.00 in0.0 mm 0.00 in0.0 mm 0.24 in6.1 mm
11:35 PM 36.9°F2.7°C 36.6°F2.6°C 99% 7.7 mph E12.4 kmh E -- -- 0.00 in0.0 mm 0.00 in0.0 mm 0.24 in6.1 mm
11:37 PM 36.9°F2.7°C 36.6°F2.6°C 99% 7.2 mph ENE11.6 kmh ENE -- -- 0.00 in0.0 mm 0.00 in0.0 mm 0.24 in6.1 mm
11:38 PM 36.9°F2.7°C 36.6°F2.6°C 99% 6.0 mph E9.7 kmh E -- -- 0.00 in0.0 mm 0.00 in0.0 mm 0.24 in6.1 mm
11:39 PM 36.9°F2.7°C 36.6°F2.6°C 99% 5.4 mph E8.7 kmh E -- -- 0.00 in0.0 mm 0.00 in0.0 mm 0.24 in6.1 mm
11:40 PM 36.9°F2.7°C 36.6°F2.6°C 99% 5.4 mph E8.7 kmh E -- -- 0.00 in0.0 mm 0.00 in0.0 mm 0.24 in6.1 mm
11:41 PM 36.9°F2.7°C 36.6°F2.6°C 99% 5.3 mph E8.5 kmh E -- -- 0.00 in0.0 mm 0.00 in0.0 mm 0.24 in6.1 mm
11:43 PM 36.9°F2.7°C 36.6°F2.6°C 99% 5.0 mph E8.0 kmh E -- -- 0.00 in0.0 mm 0.00 in0.0 mm 0.24 in6.1 mm
11:44 PM 36.9°F2.7°C 36.6°F2.6°C 99% 5.3 mph ENE8.5 kmh ENE -- -- 0.00 in0.0 mm 0.00 in0.0 mm 0.24 in6.1 mm
11:45 PM 36.9°F2.7°C 36.6°F2.6°C 99% 5.8 mph NE9.3 kmh NE -- -- 0.00 in0.0 mm 0.00 in0.0 mm 0.24 in6.1 mm
11:46 PM 36.9°F2.7°C 36.6°F2.6°C 99% 5.3 mph NE8.5 kmh NE -- -- 0.00 in0.0 mm 0.00 in0.0 mm 0.24 in6.1 mm
11:48 PM 36.9°F2.7°C 36.6°F2.6°C 99% 4.7 mph NE7.6 kmh NE -- -- 0.00 in0.0 mm 0.00 in0.0 mm 0.24 in6.1 mm
11:49 PM 36.9°F2.7°C 36.6°F2.6°C 99% 4.7 mph NE7.6 kmh NE -- -- 0.00 in0.0 mm 0.00 in0.0 mm 0.24 in6.1 mm
11:50 PM 36.9°F2.7°C 36.6°F2.6°C 99% 4.4 mph ENE7.1 kmh ENE -- -- 0.00 in0.0 mm 0.00 in0.0 mm 0.24 in6.1 mm
11:51 PM 36.9°F2.7°C 36.6°F2.6°C 99% 4.8 mph ENE7.7 kmh ENE -- -- 0.00 in0.0 mm 0.00 in0.0 mm 0.24 in6.1 mm
11:53 PM 36.9°F2.7°C 36.6°F2.6°C 99% 4.4 mph ENE7.1 kmh ENE -- -- 0.00 in0.0 mm 0.00 in0.0 mm 0.24 in6.1 mm
11:54 PM 36.9°F2.7°C 36.6°F2.6°C 99% 3.6 mph E5.8 kmh E 4.7 mph7.6 kmh -- 0.00 in0.0 mm 0.00 in0.0 mm 0.24 in6.1 mm
11:55 PM 36.9°F2.7°C 36.6°F2.6°C 99% 3.8 mph ENE6.1 kmh ENE -- -- 0.00 in0.0 mm 0.00 in0.0 mm 0.24 in6.1 mm
11:56 PM 36.9°F2.7°C 36.6°F2.6°C 99% 4.1 mph ENE6.6 kmh ENE -- -- 0.00 in0.0 mm 0.00 in0.0 mm 0.24 in6.1 mm
11:58 PM 36.9°F2.7°C 36.6°F2.6°C 99% 4.7 mph E7.6 kmh E -- -- 0.00 in0.0 mm 0.00 in0.0 mm 0.24 in6.1 mm
11:59 PM 36.9°F2.7°C 36.6°F2.6°C 99% 4.4 mph E7.1 kmh E -- -- 0.00 in0.0 mm 0.00 in0.0 mm 0.24 in6.1 mm